<?xml version="1.0" encoding="UTF-8"?>
<gpx version="1.0" creator="Trackator" xmlns:xsi="http://www.w3.org/2001/XMLSchema-instance" xmlns="http://www.topografix.com/GPX/1/0" xmlns:topografix="http://www.topografix.com/GPX/Private/TopoGrafix/0/1" xsi:schemaLocation="http://www.topografix.com/GPX/1/0 http://www.topografix.com/GPX/1/0/gpx.xsd http://www.topografix.com/GPX/Private/TopoGrafix/0/1 http://www.topografix.com/GPX/Private/TopoGrafix/0/1/topografix.xsd">
<metadata>
<link href="http://www.trackator.com">
<text>Trackator</text>
</link>
</metadata>
<time>2015-05-21T12:50:17Z</time>
<trk>
<name>Track: </name>
<desc>Cycling</desc>
<trkseg>
<trkpt lat="53.3478966" lon="18.4460201">
<ele>124</ele>
<time>2015-05-21T12:50:17Z</time>
</trkpt>
<trkpt lat="53.3478850" lon="18.4460100">
<ele>118</ele>
<time>2015-05-21T12:50:19Z</time>
</trkpt>
<trkpt lat="53.3479357" lon="18.4460430">
<ele>115</ele>
<time>2015-05-21T12:50:21Z</time>
</trkpt>
<trkpt lat="53.3479377" lon="18.4460497">
<ele>116</ele>
<time>2015-05-21T12:50:23Z</time>
</trkpt>
<trkpt lat="53.3479436" lon="18.446055">
<ele>115</ele>
<time>2015-05-21T12:50:25Z</time>
</trkpt>
<trkpt lat="53.3479477" lon="18.4460596">
<ele>115</ele>
<time>2015-05-21T12:50:27Z</time>
</trkpt>
<trkpt lat="53.3479545" lon="18.4460649">
<ele>114</ele>
<time>2015-05-21T12:50:29Z</time>
</trkpt>
<trkpt lat="53.3479611" lon="18.4460695">
<ele>114</ele>
<time>2015-05-21T12:50:32Z</time>
</trkpt>
<trkpt lat="53.3479624" lon="18.4460703">
<ele>114</ele>
<time>2015-05-21T12:50:34Z</time>
</trkpt>
<trkpt lat="53.3479633" lon="18.4460707">
<ele>114</ele>
<time>2015-05-21T12:50:36Z</time>
</trkpt>
<trkpt lat="53.3479637" lon="18.4460709">
<ele>114</ele>
<time>2015-05-21T12:50:38Z</time>
</trkpt>
<trkpt lat="53.3479638" lon="18.4460709">
<ele>114</ele>
<time>2015-05-21T12:50:40Z</time>
</trkpt>
<trkpt lat="53.3479638" lon="18.4460709">
<ele>114</ele>
<time>2015-05-21T12:50:42Z</time>
</trkpt>
<trkpt lat="53.3479638" lon="18.4460709">
<ele>114</ele>
<time>2015-05-21T12:50:44Z</time>
</trkpt>
<trkpt lat="53.3479659" lon="18.4460717">
<ele>114</ele>
<time>2015-05-21T12:51:20Z</time>
</trkpt>
<trkpt lat="53.3479659" lon="18.4460717">
<ele>114</ele>
<time>2015-05-21T12:51:23Z</time>
</trkpt>
<trkpt lat="53.3479659" lon="18.4460717">
<ele>114</ele>
<time>2015-05-21T12:51:25Z</time>
</trkpt>
<trkpt lat="53.3479659" lon="18.4460717">
<ele>114</ele>
<time>2015-05-21T12:51:27Z</time>
</trkpt>
<trkpt lat="53.3479701" lon="18.4460849">
<ele>113</ele>
<time>2015-05-21T12:52:56Z</time>
</trkpt>
<trkpt lat="53.3479784" lon="18.4460937">
<ele>112</ele>
<time>2015-05-21T12:52:59Z</time>
</trkpt>
<trkpt lat="53.3479961" lon="18.4461291">
<ele>105</ele>
<time>2015-05-21T12:53:02Z</time>
</trkpt>
<trkpt lat="53.3480240" lon="18.4461771">
<ele>98</ele>
<time>2015-05-21T12:53:04Z</time>
</trkpt>
<trkpt lat="53.3480386" lon="18.4462028">
<ele>96</ele>
<time>2015-05-21T12:53:06Z</time>
</trkpt>
<trkpt lat="53.3480678" lon="18.4462258">
<ele>95</ele>
<time>2015-05-21T12:53:08Z</time>
</trkpt>
<trkpt lat="53.3480851" lon="18.4462377">
<ele>91</ele>
<time>2015-05-21T12:53:10Z</time>
</trkpt>
<trkpt lat="53.3481174" lon="18.4462686">
<ele>86</ele>
<time>2015-05-21T12:53:12Z</time>
</trkpt>
<trkpt lat="53.3481991" lon="18.4462738">
<ele>85</ele>
<time>2015-05-21T12:53:16Z</time>
</trkpt>
<trkpt lat="53.3482621" lon="18.4462307">
<ele>82</ele>
<time>2015-05-21T12:53:20Z</time>
</trkpt>
<trkpt lat="53.3482906" lon="18.4462050">
<ele>84</ele>
<time>2015-05-21T12:53:22Z</time>
</trkpt>
<trkpt lat="53.3483238" lon="18.4461712">
<ele>85</ele>
<time>2015-05-21T12:53:24Z</time>
</trkpt>
<trkpt lat="53.3483566" lon="18.4460746">
<ele>87</ele>
<time>2015-05-21T12:53:26Z</time>
</trkpt>
<trkpt lat="53.3483585" lon="18.4459380">
<ele>85</ele>
<time>2015-05-21T12:53:28Z</time>
</trkpt>
<trkpt lat="53.3483429" lon="18.4458009">
<ele>85</ele>
<time>2015-05-21T12:53:30Z</time>
</trkpt>
<trkpt lat="53.3483459" lon="18.4457009">
<ele>87</ele>
<time>2015-05-21T12:53:32Z</time>
</trkpt>
<trkpt lat="53.3483630" lon="18.4456880">
<ele>88</ele>
<time>2015-05-21T12:53:34Z</time>
</trkpt>
<trkpt lat="53.3483694" lon="18.4456483">
<ele>88</ele>
<time>2015-05-21T12:53:36Z</time>
</trkpt>
<trkpt lat="53.3483608" lon="18.4456053">
<ele>88</ele>
<time>2015-05-21T12:53:38Z</time>
</trkpt>
<trkpt lat="53.3483374" lon="18.4455527">
<ele>89</ele>
<time>2015-05-21T12:53:40Z</time>
</trkpt>
<trkpt lat="53.3482964" lon="18.4454922">
<ele>88</ele>
<time>2015-05-21T12:53:42Z</time>
</trkpt>
<trkpt lat="53.3482892" lon="18.4454046">
<ele>89</ele>
<time>2015-05-21T12:53:44Z</time>
</trkpt>
<trkpt lat="53.3483304" lon="18.4453734">
<ele>89</ele>
<time>2015-05-21T12:53:46Z</time>
</trkpt>
<trkpt lat="53.3483888" lon="18.4453880">
<ele>88</ele>
<time>2015-05-21T12:53:48Z</time>
</trkpt>
<trkpt lat="53.3484789" lon="18.4453720">
<ele>89</ele>
<time>2015-05-21T12:53:50Z</time>
</trkpt>
<trkpt lat="53.3485509" lon="18.4453002">
<ele>89</ele>
<time>2015-05-21T12:53:52Z</time>
</trkpt>
<trkpt lat="53.3485976" lon="18.4451843">
<ele>89</ele>
<time>2015-05-21T12:53:54Z</time>
</trkpt>
<trkpt lat="53.3486134" lon="18.4450467">
<ele>89</ele>
<time>2015-05-21T12:53:56Z</time>
</trkpt>
<trkpt lat="53.3485663" lon="18.4449946">
<ele>89</ele>
<time>2015-05-21T12:53:58Z</time>
</trkpt>
<trkpt lat="53.3484956" lon="18.4449927">
<ele>89</ele>
<time>2015-05-21T12:54:00Z</time>
</trkpt>
<trkpt lat="53.3484168" lon="18.4449859">
<ele>89</ele>
<time>2015-05-21T12:54:02Z</time>
</trkpt>
<trkpt lat="53.3483325" lon="18.4449719">
<ele>90</ele>
<time>2015-05-21T12:54:04Z</time>
</trkpt>
<trkpt lat="53.3482548" lon="18.4449524">
<ele>91</ele>
<time>2015-05-21T12:54:06Z</time>
</trkpt>
<trkpt lat="53.3481969" lon="18.4449344">
<ele>91</ele>
<time>2015-05-21T12:54:08Z</time>
</trkpt>
<trkpt lat="53.3481690" lon="18.444915">
<ele>91</ele>
<time>2015-05-21T12:54:10Z</time>
</trkpt>
<trkpt lat="53.3481379" lon="18.4448968">
<ele>91</ele>
<time>2015-05-21T12:54:12Z</time>
</trkpt>
<trkpt lat="53.3481045" lon="18.4448792">
<ele>90</ele>
<time>2015-05-21T12:54:14Z</time>
</trkpt>
<trkpt lat="53.3480725" lon="18.4448372">
<ele>91</ele>
<time>2015-05-21T12:54:16Z</time>
</trkpt>
<trkpt lat="53.3480440" lon="18.4447554">
<ele>91</ele>
<time>2015-05-21T12:54:18Z</time>
</trkpt>
<trkpt lat="53.3480140" lon="18.4446454">
<ele>91</ele>
<time>2015-05-21T12:54:20Z</time>
</trkpt>
<trkpt lat="53.3479626" lon="18.4445555">
<ele>91</ele>
<time>2015-05-21T12:54:22Z</time>
</trkpt>
<trkpt lat="53.3478945" lon="18.4444864">
<ele>91</ele>
<time>2015-05-21T12:54:24Z</time>
</trkpt>
<trkpt lat="53.3478329" lon="18.4444112">
<ele>90</ele>
<time>2015-05-21T12:54:26Z</time>
</trkpt>
<trkpt lat="53.3477770" lon="18.4443332">
<ele>89</ele>
<time>2015-05-21T12:54:28Z</time>
</trkpt>
<trkpt lat="53.3477128" lon="18.4442872">
<ele>88</ele>
<time>2015-05-21T12:54:30Z</time>
</trkpt>
<trkpt lat="53.3476493" lon="18.4442339">
<ele>89</ele>
<time>2015-05-21T12:54:32Z</time>
</trkpt>
<trkpt lat="53.3475957" lon="18.4441488">
<ele>90</ele>
<time>2015-05-21T12:54:34Z</time>
</trkpt>
<trkpt lat="53.3475286" lon="18.4440794">
<ele>90</ele>
<time>2015-05-21T12:54:36Z</time>
</trkpt>
<trkpt lat="53.3474563" lon="18.4439942">
<ele>90</ele>
<time>2015-05-21T12:54:38Z</time>
</trkpt>
<trkpt lat="53.347396" lon="18.4439093">
<ele>89</ele>
<time>2015-05-21T12:54:40Z</time>
</trkpt>
<trkpt lat="53.3473601" lon="18.4438585">
<ele>90</ele>
<time>2015-05-21T12:54:42Z</time>
</trkpt>
<trkpt lat="53.3473251" lon="18.4438037">
<ele>92</ele>
<time>2015-05-21T12:54:44Z</time>
</trkpt>
<trkpt lat="53.3473075" lon="18.4437365">
<ele>93</ele>
<time>2015-05-21T12:54:46Z</time>
</trkpt>
<trkpt lat="53.3473387" lon="18.4436523">
<ele>91</ele>
<time>2015-05-21T12:54:48Z</time>
</trkpt>
<trkpt lat="53.3473851" lon="18.4435830">
<ele>90</ele>
<time>2015-05-21T12:54:50Z</time>
</trkpt>
<trkpt lat="53.3474046" lon="18.4435057">
<ele>90</ele>
<time>2015-05-21T12:54:52Z</time>
</trkpt>
<trkpt lat="53.3473846" lon="18.4434787">
<ele>90</ele>
<time>2015-05-21T12:54:54Z</time>
</trkpt>
<trkpt lat="53.3473806" lon="18.4434181">
<ele>90</ele>
<time>2015-05-21T12:54:56Z</time>
</trkpt>
<trkpt lat="53.3473945" lon="18.4433577">
<ele>90</ele>
<time>2015-05-21T12:54:58Z</time>
</trkpt>
<trkpt lat="53.3474150" lon="18.4433011">
<ele>90</ele>
<time>2015-05-21T12:55:00Z</time>
</trkpt>
<trkpt lat="53.3474406" lon="18.4432546">
<ele>89</ele>
<time>2015-05-21T12:55:02Z</time>
</trkpt>
<trkpt lat="53.3474574" lon="18.4432417">
<ele>88</ele>
<time>2015-05-21T12:55:04Z</time>
</trkpt>
<trkpt lat="53.3474609" lon="18.4432415">
<ele>88</ele>
<time>2015-05-21T12:55:06Z</time>
</trkpt>
<trkpt lat="53.3474621" lon="18.4432441">
<ele>87</ele>
<time>2015-05-21T12:55:08Z</time>
</trkpt>
<trkpt lat="53.3474623" lon="18.4432464">
<ele>86</ele>
<time>2015-05-21T12:55:10Z</time>
</trkpt>
<trkpt lat="53.3474588" lon="18.4432321">
<ele>86</ele>
<time>2015-05-21T12:55:12Z</time>
</trkpt>
<trkpt lat="53.3474565" lon="18.4431930">
<ele>88</ele>
<time>2015-05-21T12:55:14Z</time>
</trkpt>
<trkpt lat="53.3474479" lon="18.4431177">
<ele>88</ele>
<time>2015-05-21T12:55:16Z</time>
</trkpt>
<trkpt lat="53.3474566" lon="18.4430014">
<ele>87</ele>
<time>2015-05-21T12:55:18Z</time>
</trkpt>
<trkpt lat="53.3474902" lon="18.4428779">
<ele>88</ele>
<time>2015-05-21T12:55:20Z</time>
</trkpt>
<trkpt lat="53.3475428" lon="18.4427632">
<ele>89</ele>
<time>2015-05-21T12:55:22Z</time>
</trkpt>
<trkpt lat="53.3476220" lon="18.4425771">
<ele>89</ele>
<time>2015-05-21T12:55:24Z</time>
</trkpt>
<trkpt lat="53.3476756" lon="18.4424808">
<ele>88</ele>
<time>2015-05-21T12:55:26Z</time>
</trkpt>
<trkpt lat="53.3477321" lon="18.4423497">
<ele>90</ele>
<time>2015-05-21T12:55:28Z</time>
</trkpt>
<trkpt lat="53.3477791" lon="18.4422340">
<ele>90</ele>
<time>2015-05-21T12:55:30Z</time>
</trkpt>
<trkpt lat="53.3478374" lon="18.4421328">
<ele>92</ele>
<time>2015-05-21T12:55:32Z</time>
</trkpt>
<trkpt lat="53.3478917" lon="18.4420233">
<ele>91</ele>
<time>2015-05-21T12:55:34Z</time>
</trkpt>
<trkpt lat="53.3479373" lon="18.4419011">
<ele>91</ele>
<time>2015-05-21T12:55:36Z</time>
</trkpt>
<trkpt lat="53.3479953" lon="18.4417850">
<ele>91</ele>
<time>2015-05-21T12:55:38Z</time>
</trkpt>
<trkpt lat="53.3480638" lon="18.4416665">
<ele>92</ele>
<time>2015-05-21T12:55:40Z</time>
</trkpt>
<trkpt lat="53.3481256" lon="18.4415135">
<ele>92</ele>
<time>2015-05-21T12:55:42Z</time>
</trkpt>
<trkpt lat="53.3481853" lon="18.4413249">
<ele>92</ele>
<time>2015-05-21T12:55:44Z</time>
</trkpt>
<trkpt lat="53.3482451" lon="18.4411331">
<ele>92</ele>
<time>2015-05-21T12:55:46Z</time>
</trkpt>
<trkpt lat="53.3483119" lon="18.4409619">
<ele>93</ele>
<time>2015-05-21T12:55:48Z</time>
</trkpt>
<trkpt lat="53.3483613" lon="18.4407938">
<ele>94</ele>
<time>2015-05-21T12:55:50Z</time>
</trkpt>
<trkpt lat="53.3484015" lon="18.4406560">
<ele>94</ele>
<time>2015-05-21T12:55:52Z</time>
</trkpt>
<trkpt lat="53.3484429" lon="18.4405341">
<ele>94</ele>
<time>2015-05-21T12:55:54Z</time>
</trkpt>
<trkpt lat="53.3484847" lon="18.4403789">
<ele>93</ele>
<time>2015-05-21T12:55:56Z</time>
</trkpt>
<trkpt lat="53.3485256" lon="18.4402435">
<ele>93</ele>
<time>2015-05-21T12:55:58Z</time>
</trkpt>
<trkpt lat="53.3485704" lon="18.4400906">
<ele>94</ele>
<time>2015-05-21T12:56:00Z</time>
</trkpt>
<trkpt lat="53.3486198" lon="18.4399324">
<ele>94</ele>
<time>2015-05-21T12:56:02Z</time>
</trkpt>
<trkpt lat="53.3486783" lon="18.4397648">
<ele>95</ele>
<time>2015-05-21T12:56:04Z</time>
</trkpt>
<trkpt lat="53.3487134" lon="18.4396262">
<ele>95</ele>
<time>2015-05-21T12:56:06Z</time>
</trkpt>
<trkpt lat="53.3487406" lon="18.4395205">
<ele>94</ele>
<time>2015-05-21T12:56:08Z</time>
</trkpt>
<trkpt lat="53.3487633" lon="18.4393788">
<ele>94</ele>
<time>2015-05-21T12:56:10Z</time>
</trkpt>
<trkpt lat="53.3488055" lon="18.4392954">
<ele>94</ele>
<time>2015-05-21T12:56:12Z</time>
</trkpt>
<trkpt lat="53.3488306" lon="18.4391734">
<ele>94</ele>
<time>2015-05-21T12:56:14Z</time>
</trkpt>
<trkpt lat="53.3488557" lon="18.4390664">
<ele>94</ele>
<time>2015-05-21T12:56:16Z</time>
</trkpt>
<trkpt lat="53.3488840" lon="18.43896">
<ele>94</ele>
<time>2015-05-21T12:56:18Z</time>
</trkpt>
<trkpt lat="53.3489141" lon="18.4388502">
<ele>94</ele>
<time>2015-05-21T12:56:20Z</time>
</trkpt>
<trkpt lat="53.3489426" lon="18.4387387">
<ele>94</ele>
<time>2015-05-21T12:56:22Z</time>
</trkpt>
<trkpt lat="53.3489734" lon="18.4386114">
<ele>95</ele>
<time>2015-05-21T12:56:24Z</time>
</trkpt>
<trkpt lat="53.3490058" lon="18.4384839">
<ele>94</ele>
<time>2015-05-21T12:56:26Z</time>
</trkpt>
<trkpt lat="53.3490391" lon="18.4383546">
<ele>94</ele>
<time>2015-05-21T12:56:28Z</time>
</trkpt>
<trkpt lat="53.3490716" lon="18.4382378">
<ele>95</ele>
<time>2015-05-21T12:56:30Z</time>
</trkpt>
<trkpt lat="53.3490955" lon="18.4381446">
<ele>95</ele>
<time>2015-05-21T12:56:32Z</time>
</trkpt>
<trkpt lat="53.3491141" lon="18.4380679">
<ele>95</ele>
<time>2015-05-21T12:56:34Z</time>
</trkpt>
<trkpt lat="53.3491447" lon="18.4379883">
<ele>95</ele>
<time>2015-05-21T12:56:36Z</time>
</trkpt>
<trkpt lat="53.3491673" lon="18.4378873">
<ele>94</ele>
<time>2015-05-21T12:56:38Z</time>
</trkpt>
<trkpt lat="53.3491940" lon="18.4377572">
<ele>94</ele>
<time>2015-05-21T12:56:40Z</time>
</trkpt>
<trkpt lat="53.3492272" lon="18.4376250">
<ele>95</ele>
<time>2015-05-21T12:56:42Z</time>
</trkpt>
<trkpt lat="53.3492659" lon="18.4374986">
<ele>95</ele>
<time>2015-05-21T12:56:44Z</time>
</trkpt>
<trkpt lat="53.3492938" lon="18.4373863">
<ele>96</ele>
<time>2015-05-21T12:56:46Z</time>
</trkpt>
<trkpt lat="53.349325" lon="18.4372707">
<ele>96</ele>
<time>2015-05-21T12:56:48Z</time>
</trkpt>
<trkpt lat="53.3493579" lon="18.4371536">
<ele>97</ele>
<time>2015-05-21T12:56:50Z</time>
</trkpt>
<trkpt lat="53.3493860" lon="18.4370283">
<ele>97</ele>
<time>2015-05-21T12:56:52Z</time>
</trkpt>
<trkpt lat="53.3494110" lon="18.4369093">
<ele>97</ele>
<time>2015-05-21T12:56:54Z</time>
</trkpt>
<trkpt lat="53.3494401" lon="18.4367951">
<ele>98</ele>
<time>2015-05-21T12:56:56Z</time>
</trkpt>
<trkpt lat="53.3494672" lon="18.4367291">
<ele>96</ele>
<time>2015-05-21T12:56:58Z</time>
</trkpt>
<trkpt lat="53.3495199" lon="18.4367175">
<ele>95</ele>
<time>2015-05-21T12:57:00Z</time>
</trkpt>
<trkpt lat="53.3495834" lon="18.4366473">
<ele>96</ele>
<time>2015-05-21T12:57:02Z</time>
</trkpt>
<trkpt lat="53.3496309" lon="18.4365165">
<ele>97</ele>
<time>2015-05-21T12:57:04Z</time>
</trkpt>
<trkpt lat="53.3496610" lon="18.4363451">
<ele>97</ele>
<time>2015-05-21T12:57:06Z</time>
</trkpt>
<trkpt lat="53.3496963" lon="18.4362164">
<ele>97</ele>
<time>2015-05-21T12:57:08Z</time>
</trkpt>
<trkpt lat="53.3497383" lon="18.4360821">
<ele>98</ele>
<time>2015-05-21T12:57:10Z</time>
</trkpt>
<trkpt lat="53.3497616" lon="18.4359675">
<ele>98</ele>
<time>2015-05-21T12:57:12Z</time>
</trkpt>
<trkpt lat="53.3497953" lon="18.4358382">
<ele>99</ele>
<time>2015-05-21T12:57:14Z</time>
</trkpt>
<trkpt lat="53.3498282" lon="18.4356986">
<ele>98</ele>
<time>2015-05-21T12:57:16Z</time>
</trkpt>
<trkpt lat="53.3498688" lon="18.4355470">
<ele>98</ele>
<time>2015-05-21T12:57:18Z</time>
</trkpt>
<trkpt lat="53.3499108" lon="18.4353990">
<ele>98</ele>
<time>2015-05-21T12:57:20Z</time>
</trkpt>
<trkpt lat="53.3499565" lon="18.4352517">
<ele>99</ele>
<time>2015-05-21T12:57:22Z</time>
</trkpt>
<trkpt lat="53.3499999" lon="18.4351098">
<ele>99</ele>
<time>2015-05-21T12:57:24Z</time>
</trkpt>
<trkpt lat="53.3500347" lon="18.4349649">
<ele>101</ele>
<time>2015-05-21T12:57:26Z</time>
</trkpt>
<trkpt lat="53.3500732" lon="18.4348364">
<ele>100</ele>
<time>2015-05-21T12:57:28Z</time>
</trkpt>
<trkpt lat="53.3500980" lon="18.4347222">
<ele>100</ele>
<time>2015-05-21T12:57:30Z</time>
</trkpt>
<trkpt lat="53.3501287" lon="18.4345845">
<ele>102</ele>
<time>2015-05-21T12:57:32Z</time>
</trkpt>
<trkpt lat="53.3501614" lon="18.4344643">
<ele>102</ele>
<time>2015-05-21T12:57:34Z</time>
</trkpt>
<trkpt lat="53.3502045" lon="18.4343136">
<ele>103</ele>
<time>2015-05-21T12:57:36Z</time>
</trkpt>
<trkpt lat="53.3502470" lon="18.4341224">
<ele>104</ele>
<time>2015-05-21T12:57:38Z</time>
</trkpt>
<trkpt lat="53.3502955" lon="18.4339778">
<ele>104</ele>
<time>2015-05-21T12:57:40Z</time>
</trkpt>
<trkpt lat="53.3503395" lon="18.4338655">
<ele>103</ele>
<time>2015-05-21T12:57:42Z</time>
</trkpt>
<trkpt lat="53.3503716" lon="18.4337199">
<ele>104</ele>
<time>2015-05-21T12:57:44Z</time>
</trkpt>
<trkpt lat="53.3503897" lon="18.4335628">
<ele>105</ele>
<time>2015-05-21T12:57:46Z</time>
</trkpt>
<trkpt lat="53.3504154" lon="18.4333848">
<ele>107</ele>
<time>2015-05-21T12:57:48Z</time>
</trkpt>
<trkpt lat="53.3504469" lon="18.4332423">
<ele>105</ele>
<time>2015-05-21T12:57:50Z</time>
</trkpt>
<trkpt lat="53.3504711" lon="18.4330882">
<ele>105</ele>
<time>2015-05-21T12:57:52Z</time>
</trkpt>
<trkpt lat="53.3505007" lon="18.4329531">
<ele>105</ele>
<time>2015-05-21T12:57:54Z</time>
</trkpt>
<trkpt lat="53.3505248" lon="18.4327629">
<ele>104</ele>
<time>2015-05-21T12:57:56Z</time>
</trkpt>
<trkpt lat="53.3505569" lon="18.4326062">
<ele>104</ele>
<time>2015-05-21T12:57:58Z</time>
</trkpt>
<trkpt lat="53.3505903" lon="18.4324661">
<ele>105</ele>
<time>2015-05-21T12:58:00Z</time>
</trkpt>
<trkpt lat="53.3506106" lon="18.4322831">
<ele>104</ele>
<time>2015-05-21T12:58:02Z</time>
</trkpt>
<trkpt lat="53.3506280" lon="18.4321127">
<ele>105</ele>
<time>2015-05-21T12:58:04Z</time>
</trkpt>
<trkpt lat="53.3506366" lon="18.4318905">
<ele>107</ele>
<time>2015-05-21T12:58:06Z</time>
</trkpt>
<trkpt lat="53.3506292" lon="18.4316528">
<ele>109</ele>
<time>2015-05-21T12:58:08Z</time>
</trkpt>
<trkpt lat="53.3506474" lon="18.4315707">
<ele>106</ele>
<time>2015-05-21T12:58:10Z</time>
</trkpt>
<trkpt lat="53.3506607" lon="18.4314429">
<ele>106</ele>
<time>2015-05-21T12:58:12Z</time>
</trkpt>
<trkpt lat="53.3506753" lon="18.4313132">
<ele>106</ele>
<time>2015-05-21T12:58:14Z</time>
</trkpt>
<trkpt lat="53.3506828" lon="18.4311526">
<ele>106</ele>
<time>2015-05-21T12:58:16Z</time>
</trkpt>
<trkpt lat="53.3506875" lon="18.4310151">
<ele>106</ele>
<time>2015-05-21T12:58:18Z</time>
</trkpt>
<trkpt lat="53.3506922" lon="18.4308586">
<ele>105</ele>
<time>2015-05-21T12:58:20Z</time>
</trkpt>
<trkpt lat="53.3507148" lon="18.4306889">
<ele>104</ele>
<time>2015-05-21T12:58:22Z</time>
</trkpt>
<trkpt lat="53.3507488" lon="18.4303289">
<ele>104</ele>
<time>2015-05-21T12:58:26Z</time>
</trkpt>
<trkpt lat="53.3507702" lon="18.4301472">
<ele>103</ele>
<time>2015-05-21T12:58:28Z</time>
</trkpt>
<trkpt lat="53.3507883" lon="18.4299823">
<ele>103</ele>
<time>2015-05-21T12:58:30Z</time>
</trkpt>
<trkpt lat="53.3507970" lon="18.4298350">
<ele>105</ele>
<time>2015-05-21T12:58:32Z</time>
</trkpt>
<trkpt lat="53.3507960" lon="18.4297182">
<ele>104</ele>
<time>2015-05-21T12:58:34Z</time>
</trkpt>
<trkpt lat="53.3508022" lon="18.4296259">
<ele>104</ele>
<time>2015-05-21T12:58:36Z</time>
</trkpt>
<trkpt lat="53.3508104" lon="18.4295472">
<ele>105</ele>
<time>2015-05-21T12:58:38Z</time>
</trkpt>
<trkpt lat="53.3508186" lon="18.4294433">
<ele>105</ele>
<time>2015-05-21T12:58:40Z</time>
</trkpt>
<trkpt lat="53.3508146" lon="18.4293085">
<ele>106</ele>
<time>2015-05-21T12:58:42Z</time>
</trkpt>
<trkpt lat="53.3508145" lon="18.4291864">
<ele>106</ele>
<time>2015-05-21T12:58:44Z</time>
</trkpt>
<trkpt lat="53.3508117" lon="18.4290790">
<ele>107</ele>
<time>2015-05-21T12:58:46Z</time>
</trkpt>
<trkpt lat="53.3508008" lon="18.4289918">
<ele>108</ele>
<time>2015-05-21T12:58:48Z</time>
</trkpt>
<trkpt lat="53.3507794" lon="18.4288947">
<ele>108</ele>
<time>2015-05-21T12:58:50Z</time>
</trkpt>
<trkpt lat="53.350748" lon="18.4287579">
<ele>109</ele>
<time>2015-05-21T12:58:52Z</time>
</trkpt>
<trkpt lat="53.3507201" lon="18.4286157">
<ele>109</ele>
<time>2015-05-21T12:58:54Z</time>
</trkpt>
<trkpt lat="53.3507134" lon="18.4285037">
<ele>107</ele>
<time>2015-05-21T12:58:56Z</time>
</trkpt>
<trkpt lat="53.3507078" lon="18.4284437">
<ele>104</ele>
<time>2015-05-21T12:58:58Z</time>
</trkpt>
<trkpt lat="53.3506763" lon="18.4283793">
<ele>103</ele>
<time>2015-05-21T12:59:00Z</time>
</trkpt>
<trkpt lat="53.3506454" lon="18.4282997">
<ele>103</ele>
<time>2015-05-21T12:59:02Z</time>
</trkpt>
<trkpt lat="53.3506138" lon="18.4282316">
<ele>104</ele>
<time>2015-05-21T12:59:04Z</time>
</trkpt>
<trkpt lat="53.3505600" lon="18.4281877">
<ele>103</ele>
<time>2015-05-21T12:59:06Z</time>
</trkpt>
<trkpt lat="53.3505105" lon="18.4280833">
<ele>103</ele>
<time>2015-05-21T12:59:08Z</time>
</trkpt>
<trkpt lat="53.3504685" lon="18.4279648">
<ele>103</ele>
<time>2015-05-21T12:59:10Z</time>
</trkpt>
<trkpt lat="53.3504255" lon="18.4278370">
<ele>104</ele>
<time>2015-05-21T12:59:12Z</time>
</trkpt>
<trkpt lat="53.3503967" lon="18.4277048">
<ele>104</ele>
<time>2015-05-21T12:59:14Z</time>
</trkpt>
<trkpt lat="53.3503651" lon="18.4275874">
<ele>103</ele>
<time>2015-05-21T12:59:16Z</time>
</trkpt>
<trkpt lat="53.3503444" lon="18.4275060">
<ele>103</ele>
<time>2015-05-21T12:59:18Z</time>
</trkpt>
<trkpt lat="53.3503192" lon="18.4274088">
<ele>103</ele>
<time>2015-05-21T12:59:20Z</time>
</trkpt>
<trkpt lat="53.3502853" lon="18.4272923">
<ele>104</ele>
<time>2015-05-21T12:59:22Z</time>
</trkpt>
<trkpt lat="53.3502525" lon="18.4271793">
<ele>104</ele>
<time>2015-05-21T12:59:24Z</time>
</trkpt>
<trkpt lat="53.3502225" lon="18.4270480">
<ele>106</ele>
<time>2015-05-21T12:59:26Z</time>
</trkpt>
<trkpt lat="53.3501741" lon="18.4269040">
<ele>107</ele>
<time>2015-05-21T12:59:28Z</time>
</trkpt>
<trkpt lat="53.3501264" lon="18.4267717">
<ele>106</ele>
<time>2015-05-21T12:59:30Z</time>
</trkpt>
<trkpt lat="53.3500719" lon="18.4266392">
<ele>107</ele>
<time>2015-05-21T12:59:32Z</time>
</trkpt>
<trkpt lat="53.3500177" lon="18.4264831">
<ele>107</ele>
<time>2015-05-21T12:59:34Z</time>
</trkpt>
<trkpt lat="53.3499707" lon="18.4263534">
<ele>110</ele>
<time>2015-05-21T12:59:36Z</time>
</trkpt>
<trkpt lat="53.3499270" lon="18.4262338">
<ele>111</ele>
<time>2015-05-21T12:59:38Z</time>
</trkpt>
<trkpt lat="53.3498697" lon="18.4261054">
<ele>111</ele>
<time>2015-05-21T12:59:40Z</time>
</trkpt>
<trkpt lat="53.3498156" lon="18.4259552">
<ele>112</ele>
<time>2015-05-21T12:59:42Z</time>
</trkpt>
<trkpt lat="53.3497851" lon="18.4258554">
<ele>111</ele>
<time>2015-05-21T12:59:44Z</time>
</trkpt>
<trkpt lat="53.3497548" lon="18.4257524">
<ele>110</ele>
<time>2015-05-21T12:59:46Z</time>
</trkpt>
<trkpt lat="53.3497193" lon="18.4256431">
<ele>110</ele>
<time>2015-05-21T12:59:48Z</time>
</trkpt>
<trkpt lat="53.3496847" lon="18.4255595">
<ele>106</ele>
<time>2015-05-21T12:59:50Z</time>
</trkpt>
<trkpt lat="53.3496440" lon="18.4254764">
<ele>107</ele>
<time>2015-05-21T12:59:52Z</time>
</trkpt>
<trkpt lat="53.3496161" lon="18.4253865">
<ele>109</ele>
<time>2015-05-21T12:59:54Z</time>
</trkpt>
<trkpt lat="53.3496168" lon="18.4253108">
<ele>105</ele>
<time>2015-05-21T12:59:56Z</time>
</trkpt>
<trkpt lat="53.3496124" lon="18.4252656">
<ele>104</ele>
<time>2015-05-21T12:59:58Z</time>
</trkpt>
<trkpt lat="53.3495819" lon="18.4252160">
<ele>103</ele>
<time>2015-05-21T13:00:00Z</time>
</trkpt>
<trkpt lat="53.3495341" lon="18.4251413">
<ele>102</ele>
<time>2015-05-21T13:00:02Z</time>
</trkpt>
<trkpt lat="53.3494834" lon="18.4250416">
<ele>101</ele>
<time>2015-05-21T13:00:04Z</time>
</trkpt>
<trkpt lat="53.3494425" lon="18.4249381">
<ele>101</ele>
<time>2015-05-21T13:00:06Z</time>
</trkpt>
<trkpt lat="53.3494129" lon="18.4248225">
<ele>102</ele>
<time>2015-05-21T13:00:08Z</time>
</trkpt>
<trkpt lat="53.3493788" lon="18.4247133">
<ele>102</ele>
<time>2015-05-21T13:00:10Z</time>
</trkpt>
<trkpt lat="53.3493425" lon="18.4246141">
<ele>100</ele>
<time>2015-05-21T13:00:12Z</time>
</trkpt>
<trkpt lat="53.3493189" lon="18.4245562">
<ele>99</ele>
<time>2015-05-21T13:00:14Z</time>
</trkpt>
<trkpt lat="53.3492939" lon="18.4245250">
<ele>99</ele>
<time>2015-05-21T13:00:16Z</time>
</trkpt>
<trkpt lat="53.3492751" lon="18.4244918">
<ele>99</ele>
<time>2015-05-21T13:00:18Z</time>
</trkpt>
<trkpt lat="53.3492585" lon="18.4244715">
<ele>98</ele>
<time>2015-05-21T13:00:20Z</time>
</trkpt>
<trkpt lat="53.3492513" lon="18.4244543">
<ele>100</ele>
<time>2015-05-21T13:00:22Z</time>
</trkpt>
<trkpt lat="53.3492530" lon="18.4244317">
<ele>101</ele>
<time>2015-05-21T13:00:24Z</time>
</trkpt>
<trkpt lat="53.3492537" lon="18.4243948">
<ele>103</ele>
<time>2015-05-21T13:00:26Z</time>
</trkpt>
<trkpt lat="53.3492511" lon="18.4243105">
<ele>103</ele>
<time>2015-05-21T13:00:28Z</time>
</trkpt>
<trkpt lat="53.3492444" lon="18.4241936">
<ele>102</ele>
<time>2015-05-21T13:00:30Z</time>
</trkpt>
<trkpt lat="53.3492253" lon="18.4240728">
<ele>103</ele>
<time>2015-05-21T13:00:32Z</time>
</trkpt>
<trkpt lat="53.3491998" lon="18.4239560">
<ele>104</ele>
<time>2015-05-21T13:00:34Z</time>
</trkpt>
<trkpt lat="53.3491596" lon="18.4238409">
<ele>104</ele>
<time>2015-05-21T13:00:36Z</time>
</trkpt>
<trkpt lat="53.3490904" lon="18.4237022">
<ele>104</ele>
<time>2015-05-21T13:00:38Z</time>
</trkpt>
<trkpt lat="53.3490493" lon="18.4235835">
<ele>104</ele>
<time>2015-05-21T13:00:40Z</time>
</trkpt>
<trkpt lat="53.3489989" lon="18.4234353">
<ele>104</ele>
<time>2015-05-21T13:00:42Z</time>
</trkpt>
<trkpt lat="53.3489663" lon="18.4233134">
<ele>106</ele>
<time>2015-05-21T13:00:44Z</time>
</trkpt>
<trkpt lat="53.3489442" lon="18.4232995">
<ele>104</ele>
<time>2015-05-21T13:00:46Z</time>
</trkpt>
<trkpt lat="53.3489134" lon="18.4232213">
<ele>103</ele>
<time>2015-05-21T13:00:48Z</time>
</trkpt>
<trkpt lat="53.3488831" lon="18.4231224">
<ele>103</ele>
<time>2015-05-21T13:00:50Z</time>
</trkpt>
<trkpt lat="53.3488326" lon="18.4229739">
<ele>103</ele>
<time>2015-05-21T13:00:52Z</time>
</trkpt>
<trkpt lat="53.3487933" lon="18.4228589">
<ele>103</ele>
<time>2015-05-21T13:00:54Z</time>
</trkpt>
<trkpt lat="53.3487473" lon="18.4227466">
<ele>103</ele>
<time>2015-05-21T13:00:56Z</time>
</trkpt>
<trkpt lat="53.3487084" lon="18.4226265">
<ele>105</ele>
<time>2015-05-21T13:00:58Z</time>
</trkpt>
<trkpt lat="53.3486726" lon="18.4225076">
<ele>105</ele>
<time>2015-05-21T13:01:00Z</time>
</trkpt>
<trkpt lat="53.3486488" lon="18.4224305">
<ele>105</ele>
<time>2015-05-21T13:01:02Z</time>
</trkpt>
<trkpt lat="53.3486488" lon="18.4224210">
<ele>107</ele>
<time>2015-05-21T13:01:04Z</time>
</trkpt>
<trkpt lat="53.3486484" lon="18.4224231">
<ele>108</ele>
<time>2015-05-21T13:01:06Z</time>
</trkpt>
<trkpt lat="53.3486378" lon="18.4224162">
<ele>110</ele>
<time>2015-05-21T13:01:08Z</time>
</trkpt>
<trkpt lat="53.3486212" lon="18.4224047">
<ele>112</ele>
<time>2015-05-21T13:01:10Z</time>
</trkpt>
<trkpt lat="53.3485903" lon="18.4223787">
<ele>113</ele>
<time>2015-05-21T13:01:12Z</time>
</trkpt>
<trkpt lat="53.3485593" lon="18.4223205">
<ele>112</ele>
<time>2015-05-21T13:01:14Z</time>
</trkpt>
<trkpt lat="53.3485375" lon="18.4222584">
<ele>111</ele>
<time>2015-05-21T13:01:16Z</time>
</trkpt>
<trkpt lat="53.3485411" lon="18.4222557">
<ele>110</ele>
<time>2015-05-21T13:01:18Z</time>
</trkpt>
<trkpt lat="53.3485416" lon="18.4222525">
<ele>109</ele>
<time>2015-05-21T13:01:20Z</time>
</trkpt>
<trkpt lat="53.3485402" lon="18.4222433">
<ele>109</ele>
<time>2015-05-21T13:01:22Z</time>
</trkpt>
<trkpt lat="53.3485448" lon="18.4222334">
<ele>109</ele>
<time>2015-05-21T13:01:24Z</time>
</trkpt>
<trkpt lat="53.3485475" lon="18.4222172">
<ele>108</ele>
<time>2015-05-21T13:01:26Z</time>
</trkpt>
<trkpt lat="53.3485447" lon="18.4221521">
<ele>107</ele>
<time>2015-05-21T13:01:28Z</time>
</trkpt>
<trkpt lat="53.3485345" lon="18.4220481">
<ele>107</ele>
<time>2015-05-21T13:01:30Z</time>
</trkpt>
<trkpt lat="53.3485087" lon="18.4219276">
<ele>106</ele>
<time>2015-05-21T13:01:32Z</time>
</trkpt>
<trkpt lat="53.3484565" lon="18.4217945">
<ele>107</ele>
<time>2015-05-21T13:01:34Z</time>
</trkpt>
<trkpt lat="53.3484076" lon="18.4216705">
<ele>106</ele>
<time>2015-05-21T13:01:36Z</time>
</trkpt>
<trkpt lat="53.3483693" lon="18.4215671">
<ele>104</ele>
<time>2015-05-21T13:01:38Z</time>
</trkpt>
<trkpt lat="53.3483287" lon="18.4214667">
<ele>103</ele>
<time>2015-05-21T13:01:40Z</time>
</trkpt>
<trkpt lat="53.3482941" lon="18.4213693">
<ele>104</ele>
<time>2015-05-21T13:01:42Z</time>
</trkpt>
<trkpt lat="53.3482673" lon="18.4212670">
<ele>103</ele>
<time>2015-05-21T13:01:44Z</time>
</trkpt>
<trkpt lat="53.3482593" lon="18.4212060">
<ele>103</ele>
<time>2015-05-21T13:01:46Z</time>
</trkpt>
<trkpt lat="53.3482513" lon="18.4211839">
<ele>104</ele>
<time>2015-05-21T13:01:48Z</time>
</trkpt>
<trkpt lat="53.3482412" lon="18.4211905">
<ele>104</ele>
<time>2015-05-21T13:01:50Z</time>
</trkpt>
<trkpt lat="53.3482217" lon="18.4211565">
<ele>103</ele>
<time>2015-05-21T13:01:52Z</time>
</trkpt>
<trkpt lat="53.3481933" lon="18.4210932">
<ele>104</ele>
<time>2015-05-21T13:01:54Z</time>
</trkpt>
<trkpt lat="53.3481698" lon="18.4210354">
<ele>104</ele>
<time>2015-05-21T13:01:56Z</time>
</trkpt>
<trkpt lat="53.3481585" lon="18.4209851">
<ele>104</ele>
<time>2015-05-21T13:01:58Z</time>
</trkpt>
<trkpt lat="53.3481452" lon="18.4209287">
<ele>104</ele>
<time>2015-05-21T13:02:00Z</time>
</trkpt>
<trkpt lat="53.3481285" lon="18.4208758">
<ele>104</ele>
<time>2015-05-21T13:02:02Z</time>
</trkpt>
<trkpt lat="53.3481088" lon="18.4208224">
<ele>104</ele>
<time>2015-05-21T13:02:04Z</time>
</trkpt>
<trkpt lat="53.3480919" lon="18.4207737">
<ele>103</ele>
<time>2015-05-21T13:02:06Z</time>
</trkpt>
<trkpt lat="53.3480742" lon="18.4207227">
<ele>104</ele>
<time>2015-05-21T13:02:08Z</time>
</trkpt>
<trkpt lat="53.3480573" lon="18.4206680">
<ele>103</ele>
<time>2015-05-21T13:02:10Z</time>
</trkpt>
<trkpt lat="53.3480358" lon="18.4206020">
<ele>103</ele>
<time>2015-05-21T13:02:12Z</time>
</trkpt>
<trkpt lat="53.3480140" lon="18.4205300">
<ele>103</ele>
<time>2015-05-21T13:02:14Z</time>
</trkpt>
<trkpt lat="53.3479486" lon="18.4203772">
<ele>104</ele>
<time>2015-05-21T13:02:18Z</time>
</trkpt>
<trkpt lat="53.3479111" lon="18.4203012">
<ele>105</ele>
<time>2015-05-21T13:02:20Z</time>
</trkpt>
<trkpt lat="53.3478715" lon="18.4202198">
<ele>104</ele>
<time>2015-05-21T13:02:22Z</time>
</trkpt>
<trkpt lat="53.3478284" lon="18.4201318">
<ele>104</ele>
<time>2015-05-21T13:02:24Z</time>
</trkpt>
<trkpt lat="53.3477640" lon="18.4199511">
<ele>103</ele>
<time>2015-05-21T13:02:28Z</time>
</trkpt>
<trkpt lat="53.3477277" lon="18.4198696">
<ele>103</ele>
<time>2015-05-21T13:02:30Z</time>
</trkpt>
<trkpt lat="53.3476467" lon="18.4198071">
<ele>104</ele>
<time>2015-05-21T13:02:34Z</time>
</trkpt>
<trkpt lat="53.3473847" lon="18.4200900">
<ele>105</ele>
<time>2015-05-21T13:02:42Z</time>
</trkpt>
<trkpt lat="53.3473034" lon="18.4202139">
<ele>106</ele>
<time>2015-05-21T13:02:44Z</time>
</trkpt>
<trkpt lat="53.3472388" lon="18.4202829">
<ele>107</ele>
<time>2015-05-21T13:02:46Z</time>
</trkpt>
<trkpt lat="53.3476874" lon="18.4198162">
<ele>103</ele>
<time>2015-05-21T13:02:32Z</time>
</trkpt>
<trkpt lat="53.3471766" lon="18.4203446">
<ele>105</ele>
<time>2015-05-21T13:02:48Z</time>
</trkpt>
<trkpt lat="53.3471381" lon="18.4203381">
<ele>107</ele>
<time>2015-05-21T13:02:50Z</time>
</trkpt>
<trkpt lat="53.3471507" lon="18.4202924">
<ele>108</ele>
<time>2015-05-21T13:02:52Z</time>
</trkpt>
<trkpt lat="53.3471499" lon="18.4202926">
<ele>110</ele>
<time>2015-05-21T13:02:54Z</time>
</trkpt>
<trkpt lat="53.3471502" lon="18.4202766">
<ele>108</ele>
<time>2015-05-21T13:02:56Z</time>
</trkpt>
<trkpt lat="53.3471511" lon="18.4202780">
<ele>109</ele>
<time>2015-05-21T13:02:58Z</time>
</trkpt>
<trkpt lat="53.3471491" lon="18.42033">
<ele>110</ele>
<time>2015-05-21T13:03:00Z</time>
</trkpt>
<trkpt lat="53.3471462" lon="18.4203635">
<ele>110</ele>
<time>2015-05-21T13:03:02Z</time>
</trkpt>
<trkpt lat="53.3471248" lon="18.4203938">
<ele>110</ele>
<time>2015-05-21T13:03:04Z</time>
</trkpt>
<trkpt lat="53.3471126" lon="18.4204345">
<ele>112</ele>
<time>2015-05-21T13:03:06Z</time>
</trkpt>
<trkpt lat="53.3471049" lon="18.4204671">
<ele>111</ele>
<time>2015-05-21T13:03:08Z</time>
</trkpt>
<trkpt lat="53.3470942" lon="18.4204876">
<ele>111</ele>
<time>2015-05-21T13:03:10Z</time>
</trkpt>
<trkpt lat="53.3470877" lon="18.4205040">
<ele>110</ele>
<time>2015-05-21T13:03:12Z</time>
</trkpt>
<trkpt lat="53.3470971" lon="18.4204548">
<ele>108</ele>
<time>2015-05-21T13:03:14Z</time>
</trkpt>
<trkpt lat="53.3471163" lon="18.4204079">
<ele>109</ele>
<time>2015-05-21T13:03:16Z</time>
</trkpt>
<trkpt lat="53.3471366" lon="18.4203717">
<ele>108</ele>
<time>2015-05-21T13:03:18Z</time>
</trkpt>
<trkpt lat="53.3471590" lon="18.4203217">
<ele>110</ele>
<time>2015-05-21T13:03:20Z</time>
</trkpt>
<trkpt lat="53.3471793" lon="18.4202641">
<ele>109</ele>
<time>2015-05-21T13:03:22Z</time>
</trkpt>
<trkpt lat="53.34721" lon="18.4202187">
<ele>110</ele>
<time>2015-05-21T13:03:24Z</time>
</trkpt>
<trkpt lat="53.347234" lon="18.4201852">
<ele>110</ele>
<time>2015-05-21T13:03:26Z</time>
</trkpt>
<trkpt lat="53.3472665" lon="18.4201419">
<ele>112</ele>
<time>2015-05-21T13:03:28Z</time>
</trkpt>
<trkpt lat="53.3472650" lon="18.4201249">
<ele>112</ele>
<time>2015-05-21T13:03:30Z</time>
</trkpt>
<trkpt lat="53.3472519" lon="18.4201560">
<ele>112</ele>
<time>2015-05-21T13:03:32Z</time>
</trkpt>
<trkpt lat="53.3472509" lon="18.4201763">
<ele>112</ele>
<time>2015-05-21T13:03:34Z</time>
</trkpt>
<trkpt lat="53.3472453" lon="18.4201831">
<ele>112</ele>
<time>2015-05-21T13:03:36Z</time>
</trkpt>
<trkpt lat="53.3472443" lon="18.4201851">
<ele>112</ele>
<time>2015-05-21T13:03:38Z</time>
</trkpt>
<trkpt lat="53.3472444" lon="18.4201843">
<ele>112</ele>
<time>2015-05-21T13:03:40Z</time>
</trkpt>
<trkpt lat="53.3472433" lon="18.4201834">
<ele>112</ele>
<time>2015-05-21T13:03:42Z</time>
</trkpt>
<trkpt lat="53.3472438" lon="18.4201811">
<ele>112</ele>
<time>2015-05-21T13:03:44Z</time>
</trkpt>
<trkpt lat="53.3472463" lon="18.4201826">
<ele>112</ele>
<time>2015-05-21T13:03:46Z</time>
</trkpt>
<trkpt lat="53.3472469" lon="18.4201844">
<ele>112</ele>
<time>2015-05-21T13:03:48Z</time>
</trkpt>
<trkpt lat="53.347247" lon="18.4201852">
<ele>112</ele>
<time>2015-05-21T13:03:50Z</time>
</trkpt>
<trkpt lat="53.3472482" lon="18.4201875">
<ele>112</ele>
<time>2015-05-21T13:03:52Z</time>
</trkpt>
<trkpt lat="53.3472487" lon="18.4201881">
<ele>112</ele>
<time>2015-05-21T13:03:54Z</time>
</trkpt>
<trkpt lat="53.3472484" lon="18.4201898">
<ele>112</ele>
<time>2015-05-21T13:03:56Z</time>
</trkpt>
<trkpt lat="53.3472448" lon="18.4201921">
<ele>112</ele>
<time>2015-05-21T13:03:58Z</time>
</trkpt>
<trkpt lat="53.3472413" lon="18.4201947">
<ele>113</ele>
<time>2015-05-21T13:04:00Z</time>
</trkpt>
<trkpt lat="53.3472393" lon="18.4201964">
<ele>113</ele>
<time>2015-05-21T13:04:02Z</time>
</trkpt>
<trkpt lat="53.3472385" lon="18.4201970">
<ele>113</ele>
<time>2015-05-21T13:04:04Z</time>
</trkpt>
<trkpt lat="53.3472383" lon="18.4201973">
<ele>113</ele>
<time>2015-05-21T13:04:06Z</time>
</trkpt>
<trkpt lat="53.3472382" lon="18.4201977">
<ele>113</ele>
<time>2015-05-21T13:04:08Z</time>
</trkpt>
<trkpt lat="53.3472381" lon="18.4201976">
<ele>113</ele>
<time>2015-05-21T13:04:10Z</time>
</trkpt>
<trkpt lat="53.3472394" lon="18.4201953">
<ele>113</ele>
<time>2015-05-21T13:04:12Z</time>
</trkpt>
<trkpt lat="53.3472437" lon="18.4201950">
<ele>113</ele>
<time>2015-05-21T13:04:14Z</time>
</trkpt>
<trkpt lat="53.3472457" lon="18.4201925">
<ele>113</ele>
<time>2015-05-21T13:05:07Z</time>
</trkpt>
<trkpt lat="53.3472456" lon="18.4201923">
<ele>113</ele>
<time>2015-05-21T13:05:10Z</time>
</trkpt>
<trkpt lat="53.3472456" lon="18.4201923">
<ele>113</ele>
<time>2015-05-21T13:05:12Z</time>
</trkpt>
<trkpt lat="53.3472455" lon="18.4201923">
<ele>113</ele>
<time>2015-05-21T13:05:15Z</time>
</trkpt>
<trkpt lat="53.3472456" lon="18.4201923">
<ele>113</ele>
<time>2015-05-21T13:05:17Z</time>
</trkpt>
<trkpt lat="53.3472457" lon="18.4201921">
<ele>113</ele>
<time>2015-05-21T13:05:19Z</time>
</trkpt>
<trkpt lat="53.3472461" lon="18.4201914">
<ele>113</ele>
<time>2015-05-21T13:05:21Z</time>
</trkpt>
<trkpt lat="53.3472464" lon="18.4201909">
<ele>113</ele>
<time>2015-05-21T13:05:23Z</time>
</trkpt>
<trkpt lat="53.3472464" lon="18.4201908">
<ele>113</ele>
<time>2015-05-21T13:05:25Z</time>
</trkpt>
<trkpt lat="53.3472465" lon="18.4201908">
<ele>113</ele>
<time>2015-05-21T13:05:27Z</time>
</trkpt>
<trkpt lat="53.3472465" lon="18.4201906">
<ele>113</ele>
<time>2015-05-21T13:05:29Z</time>
</trkpt>
<trkpt lat="53.3472468" lon="18.4201913">
<ele>113</ele>
<time>2015-05-21T13:05:31Z</time>
</trkpt>
<trkpt lat="53.3472509" lon="18.4201930">
<ele>112</ele>
<time>2015-05-21T13:05:33Z</time>
</trkpt>
<trkpt lat="53.3472529" lon="18.4202017">
<ele>112</ele>
<time>2015-05-21T13:05:35Z</time>
</trkpt>
<trkpt lat="53.3472457" lon="18.4202207">
<ele>111</ele>
<time>2015-05-21T13:05:37Z</time>
</trkpt>
<trkpt lat="53.3472419" lon="18.4202390">
<ele>109</ele>
<time>2015-05-21T13:05:39Z</time>
</trkpt>
<trkpt lat="53.3472314" lon="18.4202683">
<ele>109</ele>
<time>2015-05-21T13:05:41Z</time>
</trkpt>
<trkpt lat="53.3472280" lon="18.4202762">
<ele>111</ele>
<time>2015-05-21T13:05:43Z</time>
</trkpt>
<trkpt lat="53.3472201" lon="18.4202905">
<ele>114</ele>
<time>2015-05-21T13:05:45Z</time>
</trkpt>
<trkpt lat="53.3472024" lon="18.4203181">
<ele>117</ele>
<time>2015-05-21T13:05:47Z</time>
</trkpt>
<trkpt lat="53.3471980" lon="18.4203336">
<ele>115</ele>
<time>2015-05-21T13:05:49Z</time>
</trkpt>
<trkpt lat="53.3471984" lon="18.4203489">
<ele>113</ele>
<time>2015-05-21T13:05:51Z</time>
</trkpt>
<trkpt lat="53.3471968" lon="18.4203642">
<ele>113</ele>
<time>2015-05-21T13:05:53Z</time>
</trkpt>
<trkpt lat="53.3471995" lon="18.4203786">
<ele>114</ele>
<time>2015-05-21T13:05:55Z</time>
</trkpt>
<trkpt lat="53.3471948" lon="18.4203835">
<ele>112</ele>
<time>2015-05-21T13:05:57Z</time>
</trkpt>
<trkpt lat="53.3471922" lon="18.4203821">
<ele>112</ele>
<time>2015-05-21T13:05:59Z</time>
</trkpt>
<trkpt lat="53.3471816" lon="18.4204213">
<ele>105</ele>
<time>2015-05-21T13:06:03Z</time>
</trkpt>
<trkpt lat="53.3471768" lon="18.42047">
<ele>105</ele>
<time>2015-05-21T13:06:05Z</time>
</trkpt>
<trkpt lat="53.3471703" lon="18.4205268">
<ele>107</ele>
<time>2015-05-21T13:06:07Z</time>
</trkpt>
<trkpt lat="53.3471537" lon="18.4206035">
<ele>108</ele>
<time>2015-05-21T13:06:09Z</time>
</trkpt>
<trkpt lat="53.3471389" lon="18.4206946">
<ele>105</ele>
<time>2015-05-21T13:06:11Z</time>
</trkpt>
<trkpt lat="53.3471108" lon="18.4208005">
<ele>101</ele>
<time>2015-05-21T13:06:13Z</time>
</trkpt>
<trkpt lat="53.3470793" lon="18.4208987">
<ele>98</ele>
<time>2015-05-21T13:06:15Z</time>
</trkpt>
<trkpt lat="53.3470612" lon="18.4210113">
<ele>96</ele>
<time>2015-05-21T13:06:17Z</time>
</trkpt>
<trkpt lat="53.3470804" lon="18.4211527">
<ele>95</ele>
<time>2015-05-21T13:06:19Z</time>
</trkpt>
<trkpt lat="53.3471208" lon="18.4212881">
<ele>95</ele>
<time>2015-05-21T13:06:21Z</time>
</trkpt>
<trkpt lat="53.3471681" lon="18.4214182">
<ele>95</ele>
<time>2015-05-21T13:06:23Z</time>
</trkpt>
<trkpt lat="53.3472148" lon="18.4215495">
<ele>94</ele>
<time>2015-05-21T13:06:25Z</time>
</trkpt>
<trkpt lat="53.3472622" lon="18.4216724">
<ele>94</ele>
<time>2015-05-21T13:06:27Z</time>
</trkpt>
<trkpt lat="53.3473053" lon="18.4217939">
<ele>93</ele>
<time>2015-05-21T13:06:29Z</time>
</trkpt>
<trkpt lat="53.3473444" lon="18.4219153">
<ele>93</ele>
<time>2015-05-21T13:06:31Z</time>
</trkpt>
<trkpt lat="53.3473872" lon="18.4220326">
<ele>93</ele>
<time>2015-05-21T13:06:33Z</time>
</trkpt>
<trkpt lat="53.3474300" lon="18.4221529">
<ele>92</ele>
<time>2015-05-21T13:06:35Z</time>
</trkpt>
<trkpt lat="53.3474870" lon="18.4222981">
<ele>92</ele>
<time>2015-05-21T13:06:37Z</time>
</trkpt>
<trkpt lat="53.3475255" lon="18.4224356">
<ele>91</ele>
<time>2015-05-21T13:06:39Z</time>
</trkpt>
<trkpt lat="53.3475656" lon="18.4225537">
<ele>91</ele>
<time>2015-05-21T13:06:41Z</time>
</trkpt>
<trkpt lat="53.3476078" lon="18.4226622">
<ele>90</ele>
<time>2015-05-21T13:06:43Z</time>
</trkpt>
<trkpt lat="53.3476462" lon="18.4227769">
<ele>90</ele>
<time>2015-05-21T13:06:45Z</time>
</trkpt>
<trkpt lat="53.3476711" lon="18.4228987">
<ele>89</ele>
<time>2015-05-21T13:06:47Z</time>
</trkpt>
<trkpt lat="53.3477023" lon="18.4230117">
<ele>87</ele>
<time>2015-05-21T13:06:49Z</time>
</trkpt>
<trkpt lat="53.3477305" lon="18.4231148">
<ele>86</ele>
<time>2015-05-21T13:06:51Z</time>
</trkpt>
<trkpt lat="53.3477583" lon="18.4231752">
<ele>91</ele>
<time>2015-05-21T13:06:53Z</time>
</trkpt>
<trkpt lat="53.3477837" lon="18.4232492">
<ele>91</ele>
<time>2015-05-21T13:06:55Z</time>
</trkpt>
<trkpt lat="53.3478213" lon="18.4233463">
<ele>90</ele>
<time>2015-05-21T13:06:57Z</time>
</trkpt>
<trkpt lat="53.3478614" lon="18.4234610">
<ele>89</ele>
<time>2015-05-21T13:06:59Z</time>
</trkpt>
<trkpt lat="53.3478893" lon="18.4236097">
<ele>89</ele>
<time>2015-05-21T13:07:01Z</time>
</trkpt>
<trkpt lat="53.3478853" lon="18.4237766">
<ele>89</ele>
<time>2015-05-21T13:07:03Z</time>
</trkpt>
<trkpt lat="53.3479065" lon="18.4239244">
<ele>88</ele>
<time>2015-05-21T13:07:05Z</time>
</trkpt>
<trkpt lat="53.3480687" lon="18.4240306">
<ele>87</ele>
<time>2015-05-21T13:07:07Z</time>
</trkpt>
<trkpt lat="53.3481030" lon="18.4241757">
<ele>87</ele>
<time>2015-05-21T13:07:09Z</time>
</trkpt>
<trkpt lat="53.3481396" lon="18.4243559">
<ele>90</ele>
<time>2015-05-21T13:07:11Z</time>
</trkpt>
<trkpt lat="53.3482104" lon="18.4244927">
<ele>89</ele>
<time>2015-05-21T13:07:13Z</time>
</trkpt>
<trkpt lat="53.3482540" lon="18.4246507">
<ele>89</ele>
<time>2015-05-21T13:07:15Z</time>
</trkpt>
<trkpt lat="53.3483108" lon="18.4247990">
<ele>91</ele>
<time>2015-05-21T13:07:17Z</time>
</trkpt>
<trkpt lat="53.3483618" lon="18.4249371">
<ele>90</ele>
<time>2015-05-21T13:07:19Z</time>
</trkpt>
<trkpt lat="53.3484046" lon="18.4251026">
<ele>91</ele>
<time>2015-05-21T13:07:21Z</time>
</trkpt>
<trkpt lat="53.3484638" lon="18.4252664">
<ele>92</ele>
<time>2015-05-21T13:07:23Z</time>
</trkpt>
<trkpt lat="53.3485326" lon="18.4254262">
<ele>93</ele>
<time>2015-05-21T13:07:25Z</time>
</trkpt>
<trkpt lat="53.3486119" lon="18.4257543">
<ele>92</ele>
<time>2015-05-21T13:07:29Z</time>
</trkpt>
<trkpt lat="53.3486443" lon="18.4259026">
<ele>92</ele>
<time>2015-05-21T13:07:31Z</time>
</trkpt>
<trkpt lat="53.3486899" lon="18.4260536">
<ele>91</ele>
<time>2015-05-21T13:07:33Z</time>
</trkpt>
<trkpt lat="53.3486598" lon="18.4262093">
<ele>91</ele>
<time>2015-05-21T13:07:35Z</time>
</trkpt>
<trkpt lat="53.3487849" lon="18.4262544">
<ele>91</ele>
<time>2015-05-21T13:07:37Z</time>
</trkpt>
<trkpt lat="53.3487368" lon="18.4263286">
<ele>90</ele>
<time>2015-05-21T13:07:39Z</time>
</trkpt>
<trkpt lat="53.3488619" lon="18.4263901">
<ele>93</ele>
<time>2015-05-21T13:07:41Z</time>
</trkpt>
<trkpt lat="53.3488993" lon="18.42651">
<ele>94</ele>
<time>2015-05-21T13:07:43Z</time>
</trkpt>
<trkpt lat="53.3489313" lon="18.4266148">
<ele>93</ele>
<time>2015-05-21T13:07:45Z</time>
</trkpt>
<trkpt lat="53.3489584" lon="18.4267282">
<ele>93</ele>
<time>2015-05-21T13:07:47Z</time>
</trkpt>
<trkpt lat="53.3489807" lon="18.4268461">
<ele>93</ele>
<time>2015-05-21T13:07:49Z</time>
</trkpt>
<trkpt lat="53.3489919" lon="18.4269737">
<ele>94</ele>
<time>2015-05-21T13:07:51Z</time>
</trkpt>
<trkpt lat="53.3490117" lon="18.4270985">
<ele>92</ele>
<time>2015-05-21T13:07:53Z</time>
</trkpt>
<trkpt lat="53.3490577" lon="18.4272191">
<ele>94</ele>
<time>2015-05-21T13:07:55Z</time>
</trkpt>
<trkpt lat="53.3491262" lon="18.4273523">
<ele>95</ele>
<time>2015-05-21T13:07:57Z</time>
</trkpt>
<trkpt lat="53.3491854" lon="18.4274811">
<ele>94</ele>
<time>2015-05-21T13:07:59Z</time>
</trkpt>
<trkpt lat="53.3492582" lon="18.4276054">
<ele>93</ele>
<time>2015-05-21T13:08:01Z</time>
</trkpt>
<trkpt lat="53.3493396" lon="18.4277422">
<ele>94</ele>
<time>2015-05-21T13:08:03Z</time>
</trkpt>
<trkpt lat="53.3493743" lon="18.4278943">
<ele>93</ele>
<time>2015-05-21T13:08:05Z</time>
</trkpt>
<trkpt lat="53.3494284" lon="18.4280340">
<ele>95</ele>
<time>2015-05-21T13:08:07Z</time>
</trkpt>
<trkpt lat="53.3494704" lon="18.4281731">
<ele>94</ele>
<time>2015-05-21T13:08:09Z</time>
</trkpt>
<trkpt lat="53.3495106" lon="18.4283034">
<ele>95</ele>
<time>2015-05-21T13:08:11Z</time>
</trkpt>
<trkpt lat="53.3495497" lon="18.4284259">
<ele>94</ele>
<time>2015-05-21T13:08:13Z</time>
</trkpt>
<trkpt lat="53.3495969" lon="18.4286611">
<ele>91</ele>
<time>2015-05-21T13:08:17Z</time>
</trkpt>
<trkpt lat="53.3496614" lon="18.4287770">
<ele>90</ele>
<time>2015-05-21T13:08:19Z</time>
</trkpt>
<trkpt lat="53.3497244" lon="18.4288920">
<ele>92</ele>
<time>2015-05-21T13:08:21Z</time>
</trkpt>
<trkpt lat="53.3497631" lon="18.4289996">
<ele>92</ele>
<time>2015-05-21T13:08:23Z</time>
</trkpt>
<trkpt lat="53.3498062" lon="18.4291739">
<ele>92</ele>
<time>2015-05-21T13:08:27Z</time>
</trkpt>
<trkpt lat="53.3498208" lon="18.4292309">
<ele>92</ele>
<time>2015-05-21T13:08:29Z</time>
</trkpt>
<trkpt lat="53.3498445" lon="18.4293001">
<ele>93</ele>
<time>2015-05-21T13:08:31Z</time>
</trkpt>
<trkpt lat="53.3498787" lon="18.4294037">
<ele>94</ele>
<time>2015-05-21T13:08:33Z</time>
</trkpt>
<trkpt lat="53.3499148" lon="18.4295082">
<ele>95</ele>
<time>2015-05-21T13:08:35Z</time>
</trkpt>
<trkpt lat="53.3499719" lon="18.4295555">
<ele>94</ele>
<time>2015-05-21T13:08:37Z</time>
</trkpt>
<trkpt lat="53.3500336" lon="18.4295094">
<ele>96</ele>
<time>2015-05-21T13:08:39Z</time>
</trkpt>
<trkpt lat="53.3500890" lon="18.4294459">
<ele>95</ele>
<time>2015-05-21T13:08:41Z</time>
</trkpt>
<trkpt lat="53.3501436" lon="18.4293856">
<ele>97</ele>
<time>2015-05-21T13:08:43Z</time>
</trkpt>
<trkpt lat="53.3502020" lon="18.4293239">
<ele>97</ele>
<time>2015-05-21T13:08:45Z</time>
</trkpt>
<trkpt lat="53.3502696" lon="18.4292526">
<ele>96</ele>
<time>2015-05-21T13:08:47Z</time>
</trkpt>
<trkpt lat="53.3503357" lon="18.4291744">
<ele>96</ele>
<time>2015-05-21T13:08:49Z</time>
</trkpt>
<trkpt lat="53.3503999" lon="18.4290982">
<ele>96</ele>
<time>2015-05-21T13:08:51Z</time>
</trkpt>
<trkpt lat="53.3504697" lon="18.4290327">
<ele>97</ele>
<time>2015-05-21T13:08:53Z</time>
</trkpt>
<trkpt lat="53.3505364" lon="18.4289762">
<ele>96</ele>
<time>2015-05-21T13:08:55Z</time>
</trkpt>
<trkpt lat="53.3506001" lon="18.4289543">
<ele>97</ele>
<time>2015-05-21T13:08:57Z</time>
</trkpt>
<trkpt lat="53.3506597" lon="18.4289959">
<ele>96</ele>
<time>2015-05-21T13:08:59Z</time>
</trkpt>
<trkpt lat="53.3506908" lon="18.4291102">
<ele>97</ele>
<time>2015-05-21T13:09:01Z</time>
</trkpt>
<trkpt lat="53.3506937" lon="18.4292573">
<ele>96</ele>
<time>2015-05-21T13:09:03Z</time>
</trkpt>
<trkpt lat="53.3506904" lon="18.4294027">
<ele>96</ele>
<time>2015-05-21T13:09:05Z</time>
</trkpt>
<trkpt lat="53.3506882" lon="18.4295444">
<ele>96</ele>
<time>2015-05-21T13:09:07Z</time>
</trkpt>
<trkpt lat="53.3506931" lon="18.4296741">
<ele>97</ele>
<time>2015-05-21T13:09:09Z</time>
</trkpt>
<trkpt lat="53.3507133" lon="18.4297995">
<ele>97</ele>
<time>2015-05-21T13:09:11Z</time>
</trkpt>
<trkpt lat="53.3507344" lon="18.4299222">
<ele>98</ele>
<time>2015-05-21T13:09:13Z</time>
</trkpt>
<trkpt lat="53.3507384" lon="18.4300575">
<ele>97</ele>
<time>2015-05-21T13:09:15Z</time>
</trkpt>
<trkpt lat="53.3507400" lon="18.4302114">
<ele>97</ele>
<time>2015-05-21T13:09:17Z</time>
</trkpt>
<trkpt lat="53.3507404" lon="18.4303825">
<ele>97</ele>
<time>2015-05-21T13:09:19Z</time>
</trkpt>
<trkpt lat="53.3507282" lon="18.4305374">
<ele>99</ele>
<time>2015-05-21T13:09:21Z</time>
</trkpt>
<trkpt lat="53.3507145" lon="18.4306760">
<ele>98</ele>
<time>2015-05-21T13:09:23Z</time>
</trkpt>
<trkpt lat="53.350693" lon="18.4308322">
<ele>99</ele>
<time>2015-05-21T13:09:25Z</time>
</trkpt>
<trkpt lat="53.3506699" lon="18.4309619">
<ele>98</ele>
<time>2015-05-21T13:09:27Z</time>
</trkpt>
<trkpt lat="53.3506497" lon="18.4310938">
<ele>96</ele>
<time>2015-05-21T13:09:29Z</time>
</trkpt>
<trkpt lat="53.3506489" lon="18.4312171">
<ele>96</ele>
<time>2015-05-21T13:09:31Z</time>
</trkpt>
<trkpt lat="53.3506315" lon="18.4313692">
<ele>95</ele>
<time>2015-05-21T13:09:33Z</time>
</trkpt>
<trkpt lat="53.3505933" lon="18.4315446">
<ele>92</ele>
<time>2015-05-21T13:09:35Z</time>
</trkpt>
<trkpt lat="53.3505774" lon="18.4317046">
<ele>92</ele>
<time>2015-05-21T13:09:37Z</time>
</trkpt>
<trkpt lat="53.3505487" lon="18.4318646">
<ele>91</ele>
<time>2015-05-21T13:09:39Z</time>
</trkpt>
<trkpt lat="53.3505508" lon="18.4320291">
<ele>91</ele>
<time>2015-05-21T13:09:41Z</time>
</trkpt>
<trkpt lat="53.3505157" lon="18.4322476">
<ele>92</ele>
<time>2015-05-21T13:09:43Z</time>
</trkpt>
<trkpt lat="53.3505290" lon="18.4324126">
<ele>93</ele>
<time>2015-05-21T13:09:45Z</time>
</trkpt>
<trkpt lat="53.3505165" lon="18.4326182">
<ele>94</ele>
<time>2015-05-21T13:09:47Z</time>
</trkpt>
<trkpt lat="53.3505157" lon="18.4327976">
<ele>98</ele>
<time>2015-05-21T13:09:49Z</time>
</trkpt>
<trkpt lat="53.3504810" lon="18.4329791">
<ele>98</ele>
<time>2015-05-21T13:09:51Z</time>
</trkpt>
<trkpt lat="53.3504340" lon="18.4331657">
<ele>97</ele>
<time>2015-05-21T13:09:53Z</time>
</trkpt>
<trkpt lat="53.3503819" lon="18.4333736">
<ele>97</ele>
<time>2015-05-21T13:09:55Z</time>
</trkpt>
<trkpt lat="53.3503337" lon="18.4335571">
<ele>96</ele>
<time>2015-05-21T13:09:57Z</time>
</trkpt>
<trkpt lat="53.3502757" lon="18.4337510">
<ele>94</ele>
<time>2015-05-21T13:09:59Z</time>
</trkpt>
<trkpt lat="53.3502573" lon="18.4339243">
<ele>93</ele>
<time>2015-05-21T13:10:01Z</time>
</trkpt>
<trkpt lat="53.3501609" lon="18.4342820">
<ele>93</ele>
<time>2015-05-21T13:10:05Z</time>
</trkpt>
<trkpt lat="53.3501163" lon="18.4344774">
<ele>92</ele>
<time>2015-05-21T13:10:07Z</time>
</trkpt>
<trkpt lat="53.3500856" lon="18.4346674">
<ele>91</ele>
<time>2015-05-21T13:10:09Z</time>
</trkpt>
<trkpt lat="53.3500510" lon="18.4348181">
<ele>91</ele>
<time>2015-05-21T13:10:11Z</time>
</trkpt>
<trkpt lat="53.3500020" lon="18.4349943">
<ele>91</ele>
<time>2015-05-21T13:10:13Z</time>
</trkpt>
<trkpt lat="53.3499678" lon="18.4351584">
<ele>90</ele>
<time>2015-05-21T13:10:15Z</time>
</trkpt>
<trkpt lat="53.3499244" lon="18.4353264">
<ele>91</ele>
<time>2015-05-21T13:10:17Z</time>
</trkpt>
<trkpt lat="53.3498932" lon="18.4354611">
<ele>93</ele>
<time>2015-05-21T13:10:19Z</time>
</trkpt>
<trkpt lat="53.3498458" lon="18.4356272">
<ele>93</ele>
<time>2015-05-21T13:10:21Z</time>
</trkpt>
<trkpt lat="53.3497986" lon="18.4357969">
<ele>92</ele>
<time>2015-05-21T13:10:23Z</time>
</trkpt>
<trkpt lat="53.3497425" lon="18.4359395">
<ele>93</ele>
<time>2015-05-21T13:10:25Z</time>
</trkpt>
<trkpt lat="53.3497130" lon="18.4360870">
<ele>93</ele>
<time>2015-05-21T13:10:27Z</time>
</trkpt>
<trkpt lat="53.3496757" lon="18.4362405">
<ele>92</ele>
<time>2015-05-21T13:10:29Z</time>
</trkpt>
<trkpt lat="53.3496245" lon="18.4363841">
<ele>92</ele>
<time>2015-05-21T13:10:31Z</time>
</trkpt>
<trkpt lat="53.3495954" lon="18.4364892">
<ele>90</ele>
<time>2015-05-21T13:10:33Z</time>
</trkpt>
<trkpt lat="53.3495620" lon="18.4365725">
<ele>90</ele>
<time>2015-05-21T13:10:35Z</time>
</trkpt>
<trkpt lat="53.3495270" lon="18.4366804">
<ele>90</ele>
<time>2015-05-21T13:10:37Z</time>
</trkpt>
<trkpt lat="53.3495268" lon="18.4367075">
<ele>89</ele>
<time>2015-05-21T13:10:39Z</time>
</trkpt>
<trkpt lat="53.3495355" lon="18.4366875">
<ele>90</ele>
<time>2015-05-21T13:10:41Z</time>
</trkpt>
<trkpt lat="53.3495022" lon="18.4366959">
<ele>90</ele>
<time>2015-05-21T13:10:43Z</time>
</trkpt>
<trkpt lat="53.3494589" lon="18.4367463">
<ele>90</ele>
<time>2015-05-21T13:10:45Z</time>
</trkpt>
<trkpt lat="53.3494356" lon="18.4368312">
<ele>90</ele>
<time>2015-05-21T13:10:47Z</time>
</trkpt>
<trkpt lat="53.3494126" lon="18.4369312">
<ele>91</ele>
<time>2015-05-21T13:10:49Z</time>
</trkpt>
<trkpt lat="53.3493788" lon="18.4370553">
<ele>89</ele>
<time>2015-05-21T13:10:51Z</time>
</trkpt>
<trkpt lat="53.3493498" lon="18.4371748">
<ele>88</ele>
<time>2015-05-21T13:10:53Z</time>
</trkpt>
<trkpt lat="53.3493348" lon="18.4372966">
<ele>88</ele>
<time>2015-05-21T13:10:55Z</time>
</trkpt>
<trkpt lat="53.3493153" lon="18.4374308">
<ele>89</ele>
<time>2015-05-21T13:10:57Z</time>
</trkpt>
<trkpt lat="53.3492870" lon="18.43757">
<ele>89</ele>
<time>2015-05-21T13:10:59Z</time>
</trkpt>
<trkpt lat="53.3492485" lon="18.4377050">
<ele>89</ele>
<time>2015-05-21T13:11:01Z</time>
</trkpt>
<trkpt lat="53.3492079" lon="18.4378241">
<ele>88</ele>
<time>2015-05-21T13:11:03Z</time>
</trkpt>
<trkpt lat="53.3491786" lon="18.4379253">
<ele>88</ele>
<time>2015-05-21T13:11:05Z</time>
</trkpt>
<trkpt lat="53.3491588" lon="18.4380263">
<ele>88</ele>
<time>2015-05-21T13:11:07Z</time>
</trkpt>
<trkpt lat="53.3491362" lon="18.4381294">
<ele>88</ele>
<time>2015-05-21T13:11:09Z</time>
</trkpt>
<trkpt lat="53.3491037" lon="18.4382202">
<ele>87</ele>
<time>2015-05-21T13:11:11Z</time>
</trkpt>
<trkpt lat="53.3490679" lon="18.4383017">
<ele>88</ele>
<time>2015-05-21T13:11:13Z</time>
</trkpt>
<trkpt lat="53.3490309" lon="18.4383913">
<ele>87</ele>
<time>2015-05-21T13:11:15Z</time>
</trkpt>
<trkpt lat="53.3489857" lon="18.4385011">
<ele>87</ele>
<time>2015-05-21T13:11:17Z</time>
</trkpt>
<trkpt lat="53.3489377" lon="18.4386197">
<ele>86</ele>
<time>2015-05-21T13:11:19Z</time>
</trkpt>
<trkpt lat="53.3488870" lon="18.4387215">
<ele>87</ele>
<time>2015-05-21T13:11:21Z</time>
</trkpt>
<trkpt lat="53.3488510" lon="18.4387439">
<ele>88</ele>
<time>2015-05-21T13:11:23Z</time>
</trkpt>
<trkpt lat="53.3488302" lon="18.4387176">
<ele>89</ele>
<time>2015-05-21T13:11:25Z</time>
</trkpt>
<trkpt lat="53.3488173" lon="18.4387087">
<ele>89</ele>
<time>2015-05-21T13:11:27Z</time>
</trkpt>
<trkpt lat="53.3488153" lon="18.4387148">
<ele>89</ele>
<time>2015-05-21T13:11:29Z</time>
</trkpt>
<trkpt lat="53.3488131" lon="18.4387206">
<ele>89</ele>
<time>2015-05-21T13:11:31Z</time>
</trkpt>
<trkpt lat="53.3488102" lon="18.4387346">
<ele>88</ele>
<time>2015-05-21T13:11:33Z</time>
</trkpt>
<trkpt lat="53.3488133" lon="18.4387456">
<ele>89</ele>
<time>2015-05-21T13:11:35Z</time>
</trkpt>
<trkpt lat="53.3488304" lon="18.4387523">
<ele>89</ele>
<time>2015-05-21T13:11:37Z</time>
</trkpt>
<trkpt lat="53.3488455" lon="18.4387526">
<ele>89</ele>
<time>2015-05-21T13:11:39Z</time>
</trkpt>
<trkpt lat="53.3488288" lon="18.4387264">
<ele>89</ele>
<time>2015-05-21T13:11:41Z</time>
</trkpt>
<trkpt lat="53.3488235" lon="18.4387138">
<ele>89</ele>
<time>2015-05-21T13:11:43Z</time>
</trkpt>
<trkpt lat="53.3487772" lon="18.4387257">
<ele>89</ele>
<time>2015-05-21T13:11:45Z</time>
</trkpt>
<trkpt lat="53.3487344" lon="18.4387670">
<ele>89</ele>
<time>2015-05-21T13:11:47Z</time>
</trkpt>
<trkpt lat="53.3486896" lon="18.4388594">
<ele>89</ele>
<time>2015-05-21T13:11:49Z</time>
</trkpt>
<trkpt lat="53.3486650" lon="18.4389089">
<ele>89</ele>
<time>2015-05-21T13:11:51Z</time>
</trkpt>
<trkpt lat="53.3486464" lon="18.4389679">
<ele>89</ele>
<time>2015-05-21T13:11:53Z</time>
</trkpt>
<trkpt lat="53.3486295" lon="18.4390161">
<ele>89</ele>
<time>2015-05-21T13:11:55Z</time>
</trkpt>
<trkpt lat="53.3486135" lon="18.4390596">
<ele>89</ele>
<time>2015-05-21T13:11:57Z</time>
</trkpt>
<trkpt lat="53.3485931" lon="18.4391170">
<ele>89</ele>
<time>2015-05-21T13:12:01Z</time>
</trkpt>
<trkpt lat="53.3486845" lon="18.4392437">
<ele>89</ele>
<time>2015-05-21T13:12:16Z</time>
</trkpt>
<trkpt lat="53.3487379" lon="18.4391700">
<ele>89</ele>
<time>2015-05-21T13:12:19Z</time>
</trkpt>
<trkpt lat="53.3487448" lon="18.4391825">
<ele>89</ele>
<time>2015-05-21T13:12:21Z</time>
</trkpt>
<trkpt lat="53.3487822" lon="18.4390946">
<ele>89</ele>
<time>2015-05-21T13:12:23Z</time>
</trkpt>
<trkpt lat="53.3487993" lon="18.4390271">
<ele>89</ele>
<time>2015-05-21T13:12:25Z</time>
</trkpt>
<trkpt lat="53.3487927" lon="18.4390170">
<ele>89</ele>
<time>2015-05-21T13:12:27Z</time>
</trkpt>
<trkpt lat="53.3488113" lon="18.4389945">
<ele>89</ele>
<time>2015-05-21T13:12:29Z</time>
</trkpt>
<trkpt lat="53.3488081" lon="18.4390094">
<ele>89</ele>
<time>2015-05-21T13:12:35Z</time>
</trkpt>
<trkpt lat="53.3488889" lon="18.4386548">
<ele>90</ele>
<time>2015-05-21T13:12:49Z</time>
</trkpt>
<trkpt lat="53.3486543" lon="18.4386107">
<ele>91</ele>
<time>2015-05-21T13:13:38Z</time>
</trkpt>
<trkpt lat="53.3486627" lon="18.4387489">
<ele>91</ele>
<time>2015-05-21T13:13:41Z</time>
</trkpt>
<trkpt lat="53.3486926" lon="18.4388747">
<ele>91</ele>
<time>2015-05-21T13:13:43Z</time>
</trkpt>
<trkpt lat="53.3487513" lon="18.4389261">
<ele>91</ele>
<time>2015-05-21T13:13:45Z</time>
</trkpt>
<trkpt lat="53.3488182" lon="18.4389142">
<ele>94</ele>
<time>2015-05-21T13:13:47Z</time>
</trkpt>
<trkpt lat="53.3488808" lon="18.4388313">
<ele>95</ele>
<time>2015-05-21T13:13:49Z</time>
</trkpt>
<trkpt lat="53.3489092" lon="18.4387699">
<ele>96</ele>
<time>2015-05-21T13:13:51Z</time>
</trkpt>
<trkpt lat="53.3489013" lon="18.4387142">
<ele>97</ele>
<time>2015-05-21T13:13:53Z</time>
</trkpt>
<trkpt lat="53.3488871" lon="18.4386863">
<ele>98</ele>
<time>2015-05-21T13:13:55Z</time>
</trkpt>
<trkpt lat="53.3488877" lon="18.4386513">
<ele>99</ele>
<time>2015-05-21T13:13:57Z</time>
</trkpt>
<trkpt lat="53.3489025" lon="18.4386098">
<ele>109</ele>
<time>2015-05-21T13:13:59Z</time>
</trkpt>
<trkpt lat="53.3489081" lon="18.4385487">
<ele>114</ele>
<time>2015-05-21T13:14:01Z</time>
</trkpt>
<trkpt lat="53.3489142" lon="18.4385001">
<ele>115</ele>
<time>2015-05-21T13:14:03Z</time>
</trkpt>
<trkpt lat="53.3489118" lon="18.4384599">
<ele>115</ele>
<time>2015-05-21T13:14:05Z</time>
</trkpt>
<trkpt lat="53.3489187" lon="18.4384367">
<ele>111</ele>
<time>2015-05-21T13:14:07Z</time>
</trkpt>
<trkpt lat="53.3489471" lon="18.4384330">
<ele>109</ele>
<time>2015-05-21T13:14:09Z</time>
</trkpt>
<trkpt lat="53.3489625" lon="18.4384247">
<ele>112</ele>
<time>2015-05-21T13:14:11Z</time>
</trkpt>
<trkpt lat="53.3489516" lon="18.4384354">
<ele>112</ele>
<time>2015-05-21T13:14:13Z</time>
</trkpt>
<trkpt lat="53.3489154" lon="18.4384226">
<ele>113</ele>
<time>2015-05-21T13:14:17Z</time>
</trkpt>
<trkpt lat="53.3488969" lon="18.4384498">
<ele>114</ele>
<time>2015-05-21T13:14:19Z</time>
</trkpt>
<trkpt lat="53.3488967" lon="18.4384897">
<ele>114</ele>
<time>2015-05-21T13:14:21Z</time>
</trkpt>
<trkpt lat="53.3488861" lon="18.4385217">
<ele>113</ele>
<time>2015-05-21T13:14:23Z</time>
</trkpt>
<trkpt lat="53.348813" lon="18.4384513">
<ele>115</ele>
<time>2015-05-21T13:14:27Z</time>
</trkpt>
<trkpt lat="53.3488095" lon="18.4384362">
<ele>117</ele>
<time>2015-05-21T13:14:29Z</time>
</trkpt>
<trkpt lat="53.3488163" lon="18.4384182">
<ele>115</ele>
<time>2015-05-21T13:14:31Z</time>
</trkpt>
<trkpt lat="53.3488430" lon="18.4384145">
<ele>113</ele>
<time>2015-05-21T13:14:33Z</time>
</trkpt>
<trkpt lat="53.3488695" lon="18.4384145">
<ele>112</ele>
<time>2015-05-21T13:14:35Z</time>
</trkpt>
<trkpt lat="53.3488930" lon="18.4384097">
<ele>112</ele>
<time>2015-05-21T13:14:37Z</time>
</trkpt>
<trkpt lat="53.3489204" lon="18.4383787">
<ele>112</ele>
<time>2015-05-21T13:14:41Z</time>
</trkpt>
<trkpt lat="53.3488580" lon="18.4383921">
<ele>112</ele>
<time>2015-05-21T13:14:43Z</time>
</trkpt>
<trkpt lat="53.3489943" lon="18.4387307">
<ele>99</ele>
<time>2015-05-21T13:14:47Z</time>
</trkpt>
<trkpt lat="53.3489884" lon="18.4387922">
<ele>102</ele>
<time>2015-05-21T13:14:49Z</time>
</trkpt>
<trkpt lat="53.3489562" lon="18.4389075">
<ele>100</ele>
<time>2015-05-21T13:14:51Z</time>
</trkpt>
<trkpt lat="53.3489227" lon="18.4390430">
<ele>102</ele>
<time>2015-05-21T13:14:53Z</time>
</trkpt>
<trkpt lat="53.3488434" lon="18.4392927">
<ele>99</ele>
<time>2015-05-21T13:14:57Z</time>
</trkpt>
<trkpt lat="53.3488028" lon="18.4394141">
<ele>97</ele>
<time>2015-05-21T13:14:59Z</time>
</trkpt>
<trkpt lat="53.3487436" lon="18.4395904">
<ele>97</ele>
<time>2015-05-21T13:15:02Z</time>
</trkpt>
<trkpt lat="53.3487038" lon="18.4397063">
<ele>98</ele>
<time>2015-05-21T13:15:04Z</time>
</trkpt>
<trkpt lat="53.3486604" lon="18.4398173">
<ele>97</ele>
<time>2015-05-21T13:15:06Z</time>
</trkpt>
<trkpt lat="53.3486187" lon="18.4399304">
<ele>95</ele>
<time>2015-05-21T13:15:08Z</time>
</trkpt>
<trkpt lat="53.3485862" lon="18.4400512">
<ele>94</ele>
<time>2015-05-21T13:15:10Z</time>
</trkpt>
<trkpt lat="53.3485289" lon="18.4402097">
<ele>93</ele>
<time>2015-05-21T13:15:12Z</time>
</trkpt>
<trkpt lat="53.3484677" lon="18.440357">
<ele>93</ele>
<time>2015-05-21T13:15:14Z</time>
</trkpt>
<trkpt lat="53.3484114" lon="18.4405272">
<ele>94</ele>
<time>2015-05-21T13:15:16Z</time>
</trkpt>
<trkpt lat="53.3483613" lon="18.4406628">
<ele>93</ele>
<time>2015-05-21T13:15:18Z</time>
</trkpt>
<trkpt lat="53.3483313" lon="18.4408521">
<ele>95</ele>
<time>2015-05-21T13:15:20Z</time>
</trkpt>
<trkpt lat="53.3482846" lon="18.4409863">
<ele>96</ele>
<time>2015-05-21T13:15:22Z</time>
</trkpt>
<trkpt lat="53.3482364" lon="18.4411222">
<ele>95</ele>
<time>2015-05-21T13:15:24Z</time>
</trkpt>
<trkpt lat="53.3481876" lon="18.4412336">
<ele>94</ele>
<time>2015-05-21T13:15:26Z</time>
</trkpt>
<trkpt lat="53.3480820" lon="18.4415082">
<ele>94</ele>
<time>2015-05-21T13:15:30Z</time>
</trkpt>
<trkpt lat="53.3480371" lon="18.4416400">
<ele>94</ele>
<time>2015-05-21T13:15:32Z</time>
</trkpt>
<trkpt lat="53.3479725" lon="18.4417824">
<ele>93</ele>
<time>2015-05-21T13:15:34Z</time>
</trkpt>
<trkpt lat="53.3479238" lon="18.4419017">
<ele>93</ele>
<time>2015-05-21T13:15:36Z</time>
</trkpt>
<trkpt lat="53.3478596" lon="18.4419897">
<ele>93</ele>
<time>2015-05-21T13:15:38Z</time>
</trkpt>
<trkpt lat="53.3478038" lon="18.4421034">
<ele>92</ele>
<time>2015-05-21T13:15:40Z</time>
</trkpt>
<trkpt lat="53.3477412" lon="18.4422128">
<ele>92</ele>
<time>2015-05-21T13:15:42Z</time>
</trkpt>
<trkpt lat="53.3476756" lon="18.4423490">
<ele>93</ele>
<time>2015-05-21T13:15:44Z</time>
</trkpt>
<trkpt lat="53.3476095" lon="18.4424474">
<ele>92</ele>
<time>2015-05-21T13:15:46Z</time>
</trkpt>
<trkpt lat="53.3475550" lon="18.4425398">
<ele>92</ele>
<time>2015-05-21T13:15:48Z</time>
</trkpt>
<trkpt lat="53.3474567" lon="18.4427483">
<ele>91</ele>
<time>2015-05-21T13:15:52Z</time>
</trkpt>
<trkpt lat="53.3474217" lon="18.4428115">
<ele>92</ele>
<time>2015-05-21T13:15:54Z</time>
</trkpt>
<trkpt lat="53.3473997" lon="18.4428813">
<ele>92</ele>
<time>2015-05-21T13:15:56Z</time>
</trkpt>
<trkpt lat="53.3473879" lon="18.4429216">
<ele>91</ele>
<time>2015-05-21T13:15:58Z</time>
</trkpt>
<trkpt lat="53.3473786" lon="18.4429579">
<ele>92</ele>
<time>2015-05-21T13:16:00Z</time>
</trkpt>
<trkpt lat="53.3473826" lon="18.4429616">
<ele>91</ele>
<time>2015-05-21T13:16:02Z</time>
</trkpt>
<trkpt lat="53.3473874" lon="18.4429558">
<ele>91</ele>
<time>2015-05-21T13:16:04Z</time>
</trkpt>
<trkpt lat="53.3473886" lon="18.4429543">
<ele>91</ele>
<time>2015-05-21T13:16:06Z</time>
</trkpt>
<trkpt lat="53.3473895" lon="18.4429534">
<ele>91</ele>
<time>2015-05-21T13:16:08Z</time>
</trkpt>
<trkpt lat="53.3473862" lon="18.4429543">
<ele>92</ele>
<time>2015-05-21T13:16:10Z</time>
</trkpt>
<trkpt lat="53.3473835" lon="18.4429537">
<ele>92</ele>
<time>2015-05-21T13:16:12Z</time>
</trkpt>
<trkpt lat="53.3473828" lon="18.4429540">
<ele>92</ele>
<time>2015-05-21T13:16:14Z</time>
</trkpt>
<trkpt lat="53.3473827" lon="18.4429541">
<ele>92</ele>
<time>2015-05-21T13:16:16Z</time>
</trkpt>
<trkpt lat="53.3473826" lon="18.4429542">
<ele>92</ele>
<time>2015-05-21T13:16:18Z</time>
</trkpt>
<trkpt lat="53.3473826" lon="18.4429542">
<ele>92</ele>
<time>2015-05-21T13:16:20Z</time>
</trkpt>
<trkpt lat="53.3473825" lon="18.4429542">
<ele>92</ele>
<time>2015-05-21T13:16:22Z</time>
</trkpt>
<trkpt lat="53.3473825" lon="18.4429542">
<ele>92</ele>
<time>2015-05-21T13:16:24Z</time>
</trkpt>
<trkpt lat="53.3473910" lon="18.4430172">
<ele>93</ele>
<time>2015-05-21T13:16:28Z</time>
</trkpt>
<trkpt lat="53.3473648" lon="18.4433102">
<ele>94</ele>
<time>2015-05-21T13:16:36Z</time>
</trkpt>
<trkpt lat="53.3473671" lon="18.4433565">
<ele>93</ele>
<time>2015-05-21T13:16:38Z</time>
</trkpt>
<trkpt lat="53.3473922" lon="18.4434322">
<ele>95</ele>
<time>2015-05-21T13:16:42Z</time>
</trkpt>
<trkpt lat="53.3473890" lon="18.4434793">
<ele>94</ele>
<time>2015-05-21T13:16:44Z</time>
</trkpt>
<trkpt lat="53.3473651" lon="18.4435446">
<ele>92</ele>
<time>2015-05-21T13:16:46Z</time>
</trkpt>
<trkpt lat="53.347339" lon="18.4436207">
<ele>92</ele>
<time>2015-05-21T13:16:48Z</time>
</trkpt>
<trkpt lat="53.3473861" lon="18.4437647">
<ele>91</ele>
<time>2015-05-21T13:16:52Z</time>
</trkpt>
<trkpt lat="53.3474149" lon="18.4438409">
<ele>90</ele>
<time>2015-05-21T13:16:54Z</time>
</trkpt>
<trkpt lat="53.3474337" lon="18.4439382">
<ele>93</ele>
<time>2015-05-21T13:16:56Z</time>
</trkpt>
<trkpt lat="53.3474808" lon="18.4440442">
<ele>93</ele>
<time>2015-05-21T13:16:58Z</time>
</trkpt>
<trkpt lat="53.3475404" lon="18.4441461">
<ele>94</ele>
<time>2015-05-21T13:17:00Z</time>
</trkpt>
<trkpt lat="53.3476067" lon="18.4442310">
<ele>95</ele>
<time>2015-05-21T13:17:02Z</time>
</trkpt>
<trkpt lat="53.3476649" lon="18.4443178">
<ele>94</ele>
<time>2015-05-21T13:17:04Z</time>
</trkpt>
<trkpt lat="53.3476783" lon="18.4444205">
<ele>93</ele>
<time>2015-05-21T13:17:06Z</time>
</trkpt>
<trkpt lat="53.3476294" lon="18.4445398">
<ele>93</ele>
<time>2015-05-21T13:17:08Z</time>
</trkpt>
<trkpt lat="53.3475140" lon="18.4446944">
<ele>92</ele>
<time>2015-05-21T13:17:10Z</time>
</trkpt>
<trkpt lat="53.3474448" lon="18.4448225">
<ele>90</ele>
<time>2015-05-21T13:17:12Z</time>
</trkpt>
<trkpt lat="53.3473827" lon="18.4449442">
<ele>88</ele>
<time>2015-05-21T13:17:14Z</time>
</trkpt>
<trkpt lat="53.3473268" lon="18.4450292">
<ele>88</ele>
<time>2015-05-21T13:17:16Z</time>
</trkpt>
<trkpt lat="53.3472859" lon="18.4450929">
<ele>87</ele>
<time>2015-05-21T13:17:18Z</time>
</trkpt>
<trkpt lat="53.3472425" lon="18.4451767">
<ele>87</ele>
<time>2015-05-21T13:17:22Z</time>
</trkpt>
<trkpt lat="53.3472335" lon="18.4452920">
<ele>86</ele>
<time>2015-05-21T13:17:24Z</time>
</trkpt>
<trkpt lat="53.3472877" lon="18.4455252">
<ele>87</ele>
<time>2015-05-21T13:17:28Z</time>
</trkpt>
<trkpt lat="53.3473465" lon="18.4456155">
<ele>88</ele>
<time>2015-05-21T13:17:30Z</time>
</trkpt>
<trkpt lat="53.3474257" lon="18.4456730">
<ele>89</ele>
<time>2015-05-21T13:17:32Z</time>
</trkpt>
<trkpt lat="53.3475086" lon="18.4457032">
<ele>89</ele>
<time>2015-05-21T13:17:34Z</time>
</trkpt>
<trkpt lat="53.3476748" lon="18.4457397">
<ele>88</ele>
<time>2015-05-21T13:17:38Z</time>
</trkpt>
<trkpt lat="53.3477393" lon="18.4457585">
<ele>88</ele>
<time>2015-05-21T13:17:40Z</time>
</trkpt>
<trkpt lat="53.3478092" lon="18.4457710">
<ele>90</ele>
<time>2015-05-21T13:17:42Z</time>
</trkpt>
<trkpt lat="53.3478846" lon="18.4457579">
<ele>91</ele>
<time>2015-05-21T13:17:44Z</time>
</trkpt>
<trkpt lat="53.3479559" lon="18.4457016">
<ele>93</ele>
<time>2015-05-21T13:17:46Z</time>
</trkpt>
<trkpt lat="53.3480344" lon="18.4456370">
<ele>91</ele>
<time>2015-05-21T13:17:48Z</time>
</trkpt>
<trkpt lat="53.3481135" lon="18.4456008">
<ele>92</ele>
<time>2015-05-21T13:17:50Z</time>
</trkpt>
<trkpt lat="53.3481905" lon="18.4455934">
<ele>92</ele>
<time>2015-05-21T13:17:52Z</time>
</trkpt>
<trkpt lat="53.3482310" lon="18.4456053">
<ele>92</ele>
<time>2015-05-21T13:17:54Z</time>
</trkpt>
<trkpt lat="53.3482552" lon="18.4456234">
<ele>90</ele>
<time>2015-05-21T13:17:56Z</time>
</trkpt>
<trkpt lat="53.3482653" lon="18.4456509">
<ele>91</ele>
<time>2015-05-21T13:17:58Z</time>
</trkpt>
<trkpt lat="53.3482593" lon="18.4456843">
<ele>90</ele>
<time>2015-05-21T13:18:00Z</time>
</trkpt>
<trkpt lat="53.3482385" lon="18.4457197">
<ele>91</ele>
<time>2015-05-21T13:18:02Z</time>
</trkpt>
<trkpt lat="53.3482227" lon="18.4458101">
<ele>91</ele>
<time>2015-05-21T13:18:04Z</time>
</trkpt>
<trkpt lat="53.3482381" lon="18.4459045">
<ele>91</ele>
<time>2015-05-21T13:18:06Z</time>
</trkpt>
<trkpt lat="53.3482454" lon="18.4460004">
<ele>90</ele>
<time>2015-05-21T13:18:08Z</time>
</trkpt>
<trkpt lat="53.3482434" lon="18.4460908">
<ele>89</ele>
<time>2015-05-21T13:18:10Z</time>
</trkpt>
<trkpt lat="53.3482394" lon="18.4461445">
<ele>90</ele>
<time>2015-05-21T13:18:12Z</time>
</trkpt>
<trkpt lat="53.3482383" lon="18.4461741">
<ele>90</ele>
<time>2015-05-21T13:18:14Z</time>
</trkpt>
<trkpt lat="53.3482405" lon="18.4462037">
<ele>91</ele>
<time>2015-05-21T13:18:16Z</time>
</trkpt>
<trkpt lat="53.3482463" lon="18.4462350">
<ele>90</ele>
<time>2015-05-21T13:18:18Z</time>
</trkpt>
<trkpt lat="53.3482449" lon="18.4462673">
<ele>89</ele>
<time>2015-05-21T13:18:20Z</time>
</trkpt>
<trkpt lat="53.3482397" lon="18.4462874">
<ele>89</ele>
<time>2015-05-21T13:18:22Z</time>
</trkpt>
<trkpt lat="53.3482485" lon="18.4462725">
<ele>89</ele>
<time>2015-05-21T13:18:24Z</time>
</trkpt>
<trkpt lat="53.3482525" lon="18.4462715">
<ele>88</ele>
<time>2015-05-21T13:18:26Z</time>
</trkpt>
<trkpt lat="53.3482509" lon="18.4462714">
<ele>89</ele>
<time>2015-05-21T13:18:30Z</time>
</trkpt>
<trkpt lat="53.3482562" lon="18.4462855">
<ele>88</ele>
<time>2015-05-21T13:18:32Z</time>
</trkpt>
<trkpt lat="53.3482630" lon="18.4462916">
<ele>88</ele>
<time>2015-05-21T13:18:34Z</time>
</trkpt>
<trkpt lat="53.3482686" lon="18.4462984">
<ele>88</ele>
<time>2015-05-21T13:18:36Z</time>
</trkpt>
<trkpt lat="53.3482768" lon="18.4463039">
<ele>89</ele>
<time>2015-05-21T13:18:38Z</time>
</trkpt>
<trkpt lat="53.3482915" lon="18.4463057">
<ele>89</ele>
<time>2015-05-21T13:18:42Z</time>
</trkpt>
<trkpt lat="" lon="">
<ele></ele>
<time>2015-05-21TZ</time>
</trkpt>
</trkseg>
</trk>
<wpt lat="" lon="">
	<name></name>
	<desc></desc>
	<cmt></cmt>
	<photoid></photoid>
	<type></type>
</wpt>
</gpx>
